<?xml version="1.0" encoding="UTF-8"?>
<gpx xmlns="http://www.topografix.com/GPX/1/1" xmlns:xsi="http://www.w3.org/2001/XMLSchema-instance" version="1.1" xsi:schemaLocation="http://www.topografix.com/GPX/1/1 http://www.topografix.com/GPX/1/1/gpx.xsd">
  <metadata>
    <name>Deva Triathlon</name>
  </metadata>
  <trk>
    <name>Deva Triathlon</name>
    <trkseg>
      <trkpt lat="53.18951" lon="-2.884675">
        <ele>21.14687</ele>
        <time>2024-06-02T08:40:00.000Z</time>
      </trkpt>
      <trkpt lat="53.189508" lon="-2.884675">
        <ele>21.146869</ele>
        <time>2024-06-02T08:40:00.000Z</time>
      </trkpt>
      <trkpt lat="53.189735" lon="-2.884833">
        <ele>21.146881</ele>
        <time>2024-06-02T08:40:03.000Z</time>
      </trkpt>
      <trkpt lat="53.189777" lon="-2.884886">
        <ele>21.146882</ele>
        <time>2024-06-02T08:40:04.000Z</time>
      </trkpt>
      <trkpt lat="53.189837" lon="-2.884909">
        <ele>21.146865</ele>
        <time>2024-06-02T08:40:05.000Z</time>
      </trkpt>
      <trkpt lat="53.189898" lon="-2.88489">
        <ele>21.146868</ele>
        <time>2024-06-02T08:40:06.000Z</time>
      </trkpt>
      <trkpt lat="53.189907" lon="-2.885009">
        <ele>21.146874</ele>
        <time>2024-06-02T08:40:07.000Z</time>
      </trkpt>
      <trkpt lat="53.189919" lon="-2.885105">
        <ele>21.146882</ele>
        <time>2024-06-02T08:40:08.000Z</time>
      </trkpt>
      <trkpt lat="53.18972" lon="-2.885446">
        <ele>21.146875</ele>
        <time>2024-06-02T08:40:11.000Z</time>
      </trkpt>
      <trkpt lat="53.189719" lon="-2.88545">
        <ele>21.146869</ele>
        <time>2024-06-02T08:40:11.000Z</time>
      </trkpt>
      <trkpt lat="53.189581" lon="-2.885672">
        <ele>21.116554</ele>
        <time>2024-06-02T08:40:13.000Z</time>
      </trkpt>
      <trkpt lat="53.189467" lon="-2.885871">
        <ele>21.076847</ele>
        <time>2024-06-02T08:40:15.000Z</time>
      </trkpt>
      <trkpt lat="53.189427" lon="-2.886065">
        <ele>21.044611</ele>
        <time>2024-06-02T08:40:16.000Z</time>
      </trkpt>
      <trkpt lat="53.189409" lon="-2.886174">
        <ele>21.028381</ele>
        <time>2024-06-02T08:40:17.000Z</time>
      </trkpt>
      <trkpt lat="53.189415" lon="-2.886218">
        <ele>21.022473</ele>
        <time>2024-06-02T08:40:17.000Z</time>
      </trkpt>
      <trkpt lat="53.189563" lon="-2.886713">
        <ele>20.938583</ele>
        <time>2024-06-02T08:40:21.000Z</time>
      </trkpt>
      <trkpt lat="53.189608" lon="-2.886867">
        <ele>20.915846</ele>
        <time>2024-06-02T08:40:22.000Z</time>
      </trkpt>
      <trkpt lat="53.18961" lon="-2.886895">
        <ele>20.910047</ele>
        <time>2024-06-02T08:40:22.000Z</time>
      </trkpt>
      <trkpt lat="53.189616" lon="-2.887065">
        <ele>20.88684</ele>
        <time>2024-06-02T08:40:23.000Z</time>
      </trkpt>
      <trkpt lat="53.189572" lon="-2.887371">
        <ele>20.84042</ele>
        <time>2024-06-02T08:40:25.000Z</time>
      </trkpt>
      <trkpt lat="53.189513" lon="-2.887479">
        <ele>20.818981</ele>
        <time>2024-06-02T08:40:26.000Z</time>
      </trkpt>
      <trkpt lat="53.189473" lon="-2.887536">
        <ele>20.807347</ele>
        <time>2024-06-02T08:40:27.000Z</time>
      </trkpt>
      <trkpt lat="53.189431" lon="-2.887603">
        <ele>20.792049</ele>
        <time>2024-06-02T08:40:28.000Z</time>
      </trkpt>
      <trkpt lat="53.189343" lon="-2.887685">
        <ele>20.767327</ele>
        <time>2024-06-02T08:40:29.000Z</time>
      </trkpt>
      <trkpt lat="53.189191" lon="-2.887862">
        <ele>20.720864</ele>
        <time>2024-06-02T08:40:31.000Z</time>
      </trkpt>
      <trkpt lat="53.189137" lon="-2.887932">
        <ele>20.706132</ele>
        <time>2024-06-02T08:40:32.000Z</time>
      </trkpt>
      <trkpt lat="53.189111" lon="-2.887973">
        <ele>20.631757</ele>
        <time>2024-06-02T08:40:32.000Z</time>
      </trkpt>
      <trkpt lat="53.189069" lon="-2.888089">
        <ele>20.418519</ele>
        <time>2024-06-02T08:40:33.000Z</time>
      </trkpt>
      <trkpt lat="53.189046" lon="-2.888143">
        <ele>20.297415</ele>
        <time>2024-06-02T08:40:33.000Z</time>
      </trkpt>
      <trkpt lat="53.18903" lon="-2.888177">
        <ele>20.261369</ele>
        <time>2024-06-02T08:40:33.000Z</time>
      </trkpt>
      <trkpt lat="53.189018" lon="-2.888214">
        <ele>20.175922</ele>
        <time>2024-06-02T08:40:33.000Z</time>
      </trkpt>
      <trkpt lat="53.189019" lon="-2.888233">
        <ele>20.142332</ele>
        <time>2024-06-02T08:40:33.000Z</time>
      </trkpt>
      <trkpt lat="53.189007" lon="-2.888254">
        <ele>20.106455</ele>
        <time>2024-06-02T08:40:33.000Z</time>
      </trkpt>
      <trkpt lat="53.189003" lon="-2.888315">
        <ele>20.015753</ele>
        <time>2024-06-02T08:40:33.000Z</time>
      </trkpt>
      <trkpt lat="53.188839" lon="-2.888231">
        <ele>19.587899</ele>
        <time>2024-06-02T08:40:35.000Z</time>
      </trkpt>
      <trkpt lat="53.188598" lon="-2.888095">
        <ele>18.919188</ele>
        <time>2024-06-02T08:40:38.000Z</time>
      </trkpt>
      <trkpt lat="53.188569" lon="-2.88807">
        <ele>18.824007</ele>
        <time>2024-06-02T08:40:38.000Z</time>
      </trkpt>
      <trkpt lat="53.188383" lon="-2.887988">
        <ele>18.355598</ele>
        <time>2024-06-02T08:40:40.000Z</time>
      </trkpt>
      <trkpt lat="53.188294" lon="-2.887952">
        <ele>18.107685</ele>
        <time>2024-06-02T08:40:41.000Z</time>
      </trkpt>
      <trkpt lat="53.188137" lon="-2.887879">
        <ele>17.657042</ele>
        <time>2024-06-02T08:40:43.000Z</time>
      </trkpt>
      <trkpt lat="53.188003" lon="-2.887853">
        <ele>17.347102</ele>
        <time>2024-06-02T08:40:45.000Z</time>
      </trkpt>
      <trkpt lat="53.187957" lon="-2.887842">
        <ele>17.224153</ele>
        <time>2024-06-02T08:40:46.000Z</time>
      </trkpt>
      <trkpt lat="53.187887" lon="-2.887815">
        <ele>17.043789</ele>
        <time>2024-06-02T08:40:47.000Z</time>
      </trkpt>
      <trkpt lat="53.187812" lon="-2.887794">
        <ele>16.831817</ele>
        <time>2024-06-02T08:40:48.000Z</time>
      </trkpt>
      <trkpt lat="53.187759" lon="-2.887822">
        <ele>16.676983</ele>
        <time>2024-06-02T08:40:49.000Z</time>
      </trkpt>
      <trkpt lat="53.187703" lon="-2.887876">
        <ele>16.528573</ele>
        <time>2024-06-02T08:40:50.000Z</time>
      </trkpt>
      <trkpt lat="53.18743" lon="-2.888409">
        <ele>15.637204</ele>
        <time>2024-06-02T08:40:55.000Z</time>
      </trkpt>
      <trkpt lat="53.187337" lon="-2.888657">
        <ele>15.312748</ele>
        <time>2024-06-02T08:40:57.000Z</time>
      </trkpt>
      <trkpt lat="53.187207" lon="-2.888858">
        <ele>15.012031</ele>
        <time>2024-06-02T08:40:59.000Z</time>
      </trkpt>
      <trkpt lat="53.187198" lon="-2.888858">
        <ele>14.994972</ele>
        <time>2024-06-02T08:40:59.000Z</time>
      </trkpt>
      <trkpt lat="53.187032" lon="-2.889126">
        <ele>14.588659</ele>
        <time>2024-06-02T08:41:02.000Z</time>
      </trkpt>
      <trkpt lat="53.186892" lon="-2.889342">
        <ele>14.236143</ele>
        <time>2024-06-02T08:41:04.000Z</time>
      </trkpt>
      <trkpt lat="53.1867" lon="-2.889801">
        <ele>13.63405</ele>
        <time>2024-06-02T08:41:08.000Z</time>
      </trkpt>
      <trkpt lat="53.186617" lon="-2.889747">
        <ele>13.477761</ele>
        <time>2024-06-02T08:41:09.000Z</time>
      </trkpt>
      <trkpt lat="53.186435" lon="-2.889523">
        <ele>13.090504</ele>
        <time>2024-06-02T08:41:12.000Z</time>
      </trkpt>
      <trkpt lat="53.186296" lon="-2.889345">
        <ele>12.931326</ele>
        <time>2024-06-02T08:41:14.000Z</time>
      </trkpt>
      <trkpt lat="53.186179" lon="-2.889254">
        <ele>13.077423</ele>
        <time>2024-06-02T08:41:15.000Z</time>
      </trkpt>
      <trkpt lat="53.186109" lon="-2.889203">
        <ele>13.17653</ele>
        <time>2024-06-02T08:41:16.000Z</time>
      </trkpt>
      <trkpt lat="53.186107" lon="-2.889196">
        <ele>13.196719</ele>
        <time>2024-06-02T08:41:16.000Z</time>
      </trkpt>
      <trkpt lat="53.185563" lon="-2.888765">
        <ele>13.937959</ele>
        <time>2024-06-02T08:41:23.000Z</time>
      </trkpt>
      <trkpt lat="53.185192" lon="-2.888447">
        <ele>14.472195</ele>
        <time>2024-06-02T08:41:28.000Z</time>
      </trkpt>
      <trkpt lat="53.185167" lon="-2.888424">
        <ele>14.514061</ele>
        <time>2024-06-02T08:41:28.000Z</time>
      </trkpt>
      <trkpt lat="53.185086" lon="-2.888391">
        <ele>14.604686</ele>
        <time>2024-06-02T08:41:29.000Z</time>
      </trkpt>
      <trkpt lat="53.184887" lon="-2.888236">
        <ele>14.893282</ele>
        <time>2024-06-02T08:41:31.000Z</time>
      </trkpt>
      <trkpt lat="53.184871" lon="-2.888223">
        <ele>14.912469</ele>
        <time>2024-06-02T08:41:31.000Z</time>
      </trkpt>
      <trkpt lat="53.184821" lon="-2.888195">
        <ele>14.96801</ele>
        <time>2024-06-02T08:41:32.000Z</time>
      </trkpt>
      <trkpt lat="53.184192" lon="-2.887684">
        <ele>16.683214</ele>
        <time>2024-06-02T08:41:40.000Z</time>
      </trkpt>
      <trkpt lat="53.184102" lon="-2.88763">
        <ele>16.934248</ele>
        <time>2024-06-02T08:41:41.000Z</time>
      </trkpt>
      <trkpt lat="53.184011" lon="-2.887653">
        <ele>17.189228</ele>
        <time>2024-06-02T08:41:42.000Z</time>
      </trkpt>
      <trkpt lat="53.183901" lon="-2.88769">
        <ele>17.490106</ele>
        <time>2024-06-02T08:41:43.000Z</time>
      </trkpt>
      <trkpt lat="53.18359" lon="-2.887876">
        <ele>18.386989</ele>
        <time>2024-06-02T08:41:47.000Z</time>
      </trkpt>
      <trkpt lat="53.183501" lon="-2.887909">
        <ele>18.629186</ele>
        <time>2024-06-02T08:41:48.000Z</time>
      </trkpt>
      <trkpt lat="53.183275" lon="-2.888027">
        <ele>19.279001</ele>
        <time>2024-06-02T08:41:51.000Z</time>
      </trkpt>
      <trkpt lat="53.183102" lon="-2.88814">
        <ele>19.77995</ele>
        <time>2024-06-02T08:41:53.000Z</time>
      </trkpt>
      <trkpt lat="53.183006" lon="-2.888238">
        <ele>20.03898</ele>
        <time>2024-06-02T08:41:54.000Z</time>
      </trkpt>
      <trkpt lat="53.182947" lon="-2.888317">
        <ele>20.10251</ele>
        <time>2024-06-02T08:41:55.000Z</time>
      </trkpt>
      <trkpt lat="53.182945" lon="-2.888319">
        <ele>20.11821</ele>
        <time>2024-06-02T08:41:55.000Z</time>
      </trkpt>
      <trkpt lat="53.182862" lon="-2.888185">
        <ele>20.22635</ele>
        <time>2024-06-02T08:41:56.000Z</time>
      </trkpt>
      <trkpt lat="53.182407" lon="-2.888186">
        <ele>20.648438</ele>
        <time>2024-06-02T08:42:01.000Z</time>
      </trkpt>
      <trkpt lat="53.182356" lon="-2.888155">
        <ele>20.701152</ele>
        <time>2024-06-02T08:42:02.000Z</time>
      </trkpt>
      <trkpt lat="53.181925" lon="-2.887978">
        <ele>21.116275</ele>
        <time>2024-06-02T08:42:07.000Z</time>
      </trkpt>
      <trkpt lat="53.18139" lon="-2.887733">
        <ele>21.626972</ele>
        <time>2024-06-02T08:42:13.000Z</time>
      </trkpt>
      <trkpt lat="53.180905" lon="-2.887532">
        <ele>21.86451</ele>
        <time>2024-06-02T08:42:19.000Z</time>
      </trkpt>
      <trkpt lat="53.180643" lon="-2.887426">
        <ele>21.978325</ele>
        <time>2024-06-02T08:42:22.000Z</time>
      </trkpt>
      <trkpt lat="53.180442" lon="-2.887366">
        <ele>22.065666</ele>
        <time>2024-06-02T08:42:24.000Z</time>
      </trkpt>
      <trkpt lat="53.179837" lon="-2.887079">
        <ele>22.326476</ele>
        <time>2024-06-02T08:42:31.000Z</time>
      </trkpt>
      <trkpt lat="53.179804" lon="-2.887067">
        <ele>22.343074</ele>
        <time>2024-06-02T08:42:31.000Z</time>
      </trkpt>
      <trkpt lat="53.178406" lon="-2.886491">
        <ele>23.886975</ele>
        <time>2024-06-02T08:42:47.000Z</time>
      </trkpt>
      <trkpt lat="53.178383" lon="-2.886486">
        <ele>23.91258</ele>
        <time>2024-06-02T08:42:47.000Z</time>
      </trkpt>
      <trkpt lat="53.177717" lon="-2.886229">
        <ele>24.710083</ele>
        <time>2024-06-02T08:42:55.000Z</time>
      </trkpt>
      <trkpt lat="53.176787" lon="-2.885854">
        <ele>25.727588</ele>
        <time>2024-06-02T08:43:06.000Z</time>
      </trkpt>
      <trkpt lat="53.176311" lon="-2.885601">
        <ele>26.253989</ele>
        <time>2024-06-02T08:43:12.000Z</time>
      </trkpt>
      <trkpt lat="53.175859" lon="-2.885439">
        <ele>26.440643</ele>
        <time>2024-06-02T08:43:17.000Z</time>
      </trkpt>
      <trkpt lat="53.175102" lon="-2.885158">
        <ele>26.31899</ele>
        <time>2024-06-02T08:43:26.000Z</time>
      </trkpt>
      <trkpt lat="53.174918" lon="-2.885103">
        <ele>26.290186</ele>
        <time>2024-06-02T08:43:28.000Z</time>
      </trkpt>
      <trkpt lat="53.174534" lon="-2.884999">
        <ele>26.230573</ele>
        <time>2024-06-02T08:43:32.000Z</time>
      </trkpt>
      <trkpt lat="53.174513" lon="-2.884994">
        <ele>26.227753</ele>
        <time>2024-06-02T08:43:32.000Z</time>
      </trkpt>
      <trkpt lat="53.173848" lon="-2.884763">
        <ele>25.153699</ele>
        <time>2024-06-02T08:43:40.000Z</time>
      </trkpt>
      <trkpt lat="53.173533" lon="-2.884645">
        <ele>24.444962</ele>
        <time>2024-06-02T08:43:44.000Z</time>
      </trkpt>
      <trkpt lat="53.17319" lon="-2.88456">
        <ele>23.736711</ele>
        <time>2024-06-02T08:43:48.000Z</time>
      </trkpt>
      <trkpt lat="53.172774" lon="-2.884423">
        <ele>22.824972</ele>
        <time>2024-06-02T08:43:53.000Z</time>
      </trkpt>
      <trkpt lat="53.171442" lon="-2.884041">
        <ele>18.818816</ele>
        <time>2024-06-02T08:44:08.000Z</time>
      </trkpt>
      <trkpt lat="53.1712" lon="-2.883972">
        <ele>18.11007</ele>
        <time>2024-06-02T08:44:11.000Z</time>
      </trkpt>
      <trkpt lat="53.170749" lon="-2.883908">
        <ele>16.788907</ele>
        <time>2024-06-02T08:44:16.000Z</time>
      </trkpt>
      <trkpt lat="53.17041" lon="-2.883863">
        <ele>16.367394</ele>
        <time>2024-06-02T08:44:20.000Z</time>
      </trkpt>
      <trkpt lat="53.169925" lon="-2.883728">
        <ele>15.752776</ele>
        <time>2024-06-02T08:44:25.000Z</time>
      </trkpt>
      <trkpt lat="53.169562" lon="-2.883632">
        <ele>15.291955</ele>
        <time>2024-06-02T08:44:29.000Z</time>
      </trkpt>
      <trkpt lat="53.167388" lon="-2.883316">
        <ele>14.818777</ele>
        <time>2024-06-02T08:44:53.000Z</time>
      </trkpt>
      <trkpt lat="53.16655" lon="-2.883117">
        <ele>15.303547</ele>
        <time>2024-06-02T08:45:02.000Z</time>
      </trkpt>
      <trkpt lat="53.163468" lon="-2.882177">
        <ele>17.969933</ele>
        <time>2024-06-02T08:45:37.000Z</time>
      </trkpt>
      <trkpt lat="53.162767" lon="-2.882015">
        <ele>19.040145</ele>
        <time>2024-06-02T08:45:45.000Z</time>
      </trkpt>
      <trkpt lat="53.161828" lon="-2.881809">
        <ele>20.556253</ele>
        <time>2024-06-02T08:45:56.000Z</time>
      </trkpt>
      <trkpt lat="53.161092" lon="-2.88166">
        <ele>22.467746</ele>
        <time>2024-06-02T08:46:04.000Z</time>
      </trkpt>
      <trkpt lat="53.160927" lon="-2.881642">
        <ele>22.900338</ele>
        <time>2024-06-02T08:46:06.000Z</time>
      </trkpt>
      <trkpt lat="53.15971" lon="-2.881475">
        <ele>25.932224</ele>
        <time>2024-06-02T08:46:20.000Z</time>
      </trkpt>
      <trkpt lat="53.159043" lon="-2.881425">
        <ele>27.468173</ele>
        <time>2024-06-02T08:46:27.000Z</time>
      </trkpt>
      <trkpt lat="53.158836" lon="-2.881428">
        <ele>27.957719</ele>
        <time>2024-06-02T08:46:29.000Z</time>
      </trkpt>
      <trkpt lat="53.158697" lon="-2.88142">
        <ele>28.289515</ele>
        <time>2024-06-02T08:46:31.000Z</time>
      </trkpt>
      <trkpt lat="53.158378" lon="-2.881407">
        <ele>29.036629</ele>
        <time>2024-06-02T08:46:35.000Z</time>
      </trkpt>
      <trkpt lat="53.158003" lon="-2.881398">
        <ele>29.910754</ele>
        <time>2024-06-02T08:46:39.000Z</time>
      </trkpt>
      <trkpt lat="53.157944" lon="-2.881388">
        <ele>30.055839</ele>
        <time>2024-06-02T08:46:40.000Z</time>
      </trkpt>
      <trkpt lat="53.157761" lon="-2.881366">
        <ele>30.442136</ele>
        <time>2024-06-02T08:46:42.000Z</time>
      </trkpt>
      <trkpt lat="53.15764" lon="-2.881341">
        <ele>30.730078</ele>
        <time>2024-06-02T08:46:43.000Z</time>
      </trkpt>
      <trkpt lat="53.157273" lon="-2.881257">
        <ele>31.628283</ele>
        <time>2024-06-02T08:46:47.000Z</time>
      </trkpt>
      <trkpt lat="53.157093" lon="-2.881218">
        <ele>32.035553</ele>
        <time>2024-06-02T08:46:49.000Z</time>
      </trkpt>
      <trkpt lat="53.157026" lon="-2.881213">
        <ele>32.176902</ele>
        <time>2024-06-02T08:46:50.000Z</time>
      </trkpt>
      <trkpt lat="53.156568" lon="-2.881097">
        <ele>33.260199</ele>
        <time>2024-06-02T08:46:55.000Z</time>
      </trkpt>
      <trkpt lat="53.156533" lon="-2.881477">
        <ele>33.909135</ele>
        <time>2024-06-02T08:46:58.000Z</time>
      </trkpt>
      <trkpt lat="53.156488" lon="-2.882041">
        <ele>34.947525</ele>
        <time>2024-06-02T08:47:02.000Z</time>
      </trkpt>
      <trkpt lat="53.156478" lon="-2.882293">
        <ele>35.379295</ele>
        <time>2024-06-02T08:47:04.000Z</time>
      </trkpt>
      <trkpt lat="53.156474" lon="-2.88237">
        <ele>35.539418</ele>
        <time>2024-06-02T08:47:05.000Z</time>
      </trkpt>
      <trkpt lat="53.15642" lon="-2.882621">
        <ele>36.019298</ele>
        <time>2024-06-02T08:47:07.000Z</time>
      </trkpt>
      <trkpt lat="53.156346" lon="-2.882844">
        <ele>36.456395</ele>
        <time>2024-06-02T08:47:09.000Z</time>
      </trkpt>
      <trkpt lat="53.156344" lon="-2.882865">
        <ele>36.493257</ele>
        <time>2024-06-02T08:47:09.000Z</time>
      </trkpt>
      <trkpt lat="53.156256" lon="-2.883318">
        <ele>37.351719</ele>
        <time>2024-06-02T08:47:12.000Z</time>
      </trkpt>
      <trkpt lat="53.156168" lon="-2.883912">
        <ele>38.444773</ele>
        <time>2024-06-02T08:47:16.000Z</time>
      </trkpt>
      <trkpt lat="53.155997" lon="-2.885982">
        <ele>38.433648</ele>
        <time>2024-06-02T08:47:30.000Z</time>
      </trkpt>
      <trkpt lat="53.155981" lon="-2.886275">
        <ele>38.389295</ele>
        <time>2024-06-02T08:47:32.000Z</time>
      </trkpt>
      <trkpt lat="53.155892" lon="-2.886812">
        <ele>38.303794</ele>
        <time>2024-06-02T08:47:36.000Z</time>
      </trkpt>
      <trkpt lat="53.155685" lon="-2.887758">
        <ele>36.41177</ele>
        <time>2024-06-02T08:47:43.000Z</time>
      </trkpt>
      <trkpt lat="53.15555" lon="-2.888414">
        <ele>34.723033</ele>
        <time>2024-06-02T08:47:48.000Z</time>
      </trkpt>
      <trkpt lat="53.155183" lon="-2.890093">
        <ele>30.58976</ele>
        <time>2024-06-02T08:48:00.000Z</time>
      </trkpt>
      <trkpt lat="53.154757" lon="-2.892373">
        <ele>26.213995</ele>
        <time>2024-06-02T08:48:16.000Z</time>
      </trkpt>
      <trkpt lat="53.154499" lon="-2.893911">
        <ele>24.207982</ele>
        <time>2024-06-02T08:48:27.000Z</time>
      </trkpt>
      <trkpt lat="53.154481" lon="-2.893979">
        <ele>24.124863</ele>
        <time>2024-06-02T08:48:27.000Z</time>
      </trkpt>
      <trkpt lat="53.154453" lon="-2.894242">
        <ele>23.834467</ele>
        <time>2024-06-02T08:48:29.000Z</time>
      </trkpt>
      <trkpt lat="53.154405" lon="-2.894541">
        <ele>23.493072</ele>
        <time>2024-06-02T08:48:31.000Z</time>
      </trkpt>
      <trkpt lat="53.154384" lon="-2.894867">
        <ele>23.144097</ele>
        <time>2024-06-02T08:48:33.000Z</time>
      </trkpt>
      <trkpt lat="53.154366" lon="-2.894943">
        <ele>23.045933</ele>
        <time>2024-06-02T08:48:34.000Z</time>
      </trkpt>
      <trkpt lat="53.154326" lon="-2.895679">
        <ele>22.255157</ele>
        <time>2024-06-02T08:48:39.000Z</time>
      </trkpt>
      <trkpt lat="53.15426" lon="-2.896491">
        <ele>21.685206</ele>
        <time>2024-06-02T08:48:44.000Z</time>
      </trkpt>
      <trkpt lat="53.153509" lon="-2.901773">
        <ele>17.615477</ele>
        <time>2024-06-02T08:49:20.000Z</time>
      </trkpt>
      <trkpt lat="53.153481" lon="-2.901926">
        <ele>17.407711</ele>
        <time>2024-06-02T08:49:21.000Z</time>
      </trkpt>
      <trkpt lat="53.153419" lon="-2.902367">
        <ele>16.832464</ele>
        <time>2024-06-02T08:49:24.000Z</time>
      </trkpt>
      <trkpt lat="53.153312" lon="-2.90283">
        <ele>16.177608</ele>
        <time>2024-06-02T08:49:27.000Z</time>
      </trkpt>
      <trkpt lat="53.153051" lon="-2.903784">
        <ele>14.837417</ele>
        <time>2024-06-02T08:49:34.000Z</time>
      </trkpt>
      <trkpt lat="53.152958" lon="-2.904136">
        <ele>14.343345</ele>
        <time>2024-06-02T08:49:37.000Z</time>
      </trkpt>
      <trkpt lat="53.152226" lon="-2.906441">
        <ele>11.564879</ele>
        <time>2024-06-02T08:49:54.000Z</time>
      </trkpt>
      <trkpt lat="53.151874" lon="-2.907725">
        <ele>10.653967</ele>
        <time>2024-06-02T08:50:03.000Z</time>
      </trkpt>
      <trkpt lat="53.15143" lon="-2.909373">
        <ele>9.922309</ele>
        <time>2024-06-02T08:50:15.000Z</time>
      </trkpt>
      <trkpt lat="53.151389" lon="-2.909492">
        <ele>9.873482</ele>
        <time>2024-06-02T08:50:16.000Z</time>
      </trkpt>
      <trkpt lat="53.151311" lon="-2.909787">
        <ele>9.752656</ele>
        <time>2024-06-02T08:50:18.000Z</time>
      </trkpt>
      <trkpt lat="53.15125" lon="-2.909981">
        <ele>9.687756</ele>
        <time>2024-06-02T08:50:19.000Z</time>
      </trkpt>
      <trkpt lat="53.150473" lon="-2.912902">
        <ele>8.782403</ele>
        <time>2024-06-02T08:50:40.000Z</time>
      </trkpt>
      <trkpt lat="53.150363" lon="-2.913284">
        <ele>8.721195</ele>
        <time>2024-06-02T08:50:43.000Z</time>
      </trkpt>
      <trkpt lat="53.150328" lon="-2.913446">
        <ele>8.695944</ele>
        <time>2024-06-02T08:50:44.000Z</time>
      </trkpt>
      <trkpt lat="53.150164" lon="-2.914008">
        <ele>8.60696</ele>
        <time>2024-06-02T08:50:48.000Z</time>
      </trkpt>
      <trkpt lat="53.150056" lon="-2.914424">
        <ele>8.539955</ele>
        <time>2024-06-02T08:50:51.000Z</time>
      </trkpt>
      <trkpt lat="53.149958" lon="-2.914816">
        <ele>8.479084</ele>
        <time>2024-06-02T08:50:54.000Z</time>
      </trkpt>
      <trkpt lat="53.149909" lon="-2.914964">
        <ele>8.454652</ele>
        <time>2024-06-02T08:50:55.000Z</time>
      </trkpt>
      <trkpt lat="53.149404" lon="-2.916969">
        <ele>9.65773</ele>
        <time>2024-06-02T08:51:10.000Z</time>
      </trkpt>
      <trkpt lat="53.14943" lon="-2.917113">
        <ele>9.749719</ele>
        <time>2024-06-02T08:51:11.000Z</time>
      </trkpt>
      <trkpt lat="53.148431" lon="-2.917306">
        <ele>11.146668</ele>
        <time>2024-06-02T08:51:22.000Z</time>
      </trkpt>
      <trkpt lat="53.147831" lon="-2.917396">
        <ele>12.239143</ele>
        <time>2024-06-02T08:51:29.000Z</time>
      </trkpt>
      <trkpt lat="53.147076" lon="-2.917734">
        <ele>13.559809</ele>
        <time>2024-06-02T08:51:38.000Z</time>
      </trkpt>
      <trkpt lat="53.146606" lon="-2.918055">
        <ele>13.94224</ele>
        <time>2024-06-02T08:51:44.000Z</time>
      </trkpt>
      <trkpt lat="53.14592" lon="-2.918521">
        <ele>14.501198</ele>
        <time>2024-06-02T08:51:52.000Z</time>
      </trkpt>
      <trkpt lat="53.145282" lon="-2.918953">
        <ele>14.754427</ele>
        <time>2024-06-02T08:52:00.000Z</time>
      </trkpt>
      <trkpt lat="53.144269" lon="-2.919581">
        <ele>14.179597</ele>
        <time>2024-06-02T08:52:12.000Z</time>
      </trkpt>
      <trkpt lat="53.144142" lon="-2.919662">
        <ele>14.103473</ele>
        <time>2024-06-02T08:52:14.000Z</time>
      </trkpt>
      <trkpt lat="53.144045" lon="-2.919708">
        <ele>14.056187</ele>
        <time>2024-06-02T08:52:15.000Z</time>
      </trkpt>
      <trkpt lat="53.143731" lon="-2.919926">
        <ele>13.897284</ele>
        <time>2024-06-02T08:52:19.000Z</time>
      </trkpt>
      <trkpt lat="53.143619" lon="-2.919999">
        <ele>13.878663</ele>
        <time>2024-06-02T08:52:20.000Z</time>
      </trkpt>
      <trkpt lat="53.143207" lon="-2.920237">
        <ele>13.807672</ele>
        <time>2024-06-02T08:52:25.000Z</time>
      </trkpt>
      <trkpt lat="53.143062" lon="-2.920312">
        <ele>13.782688</ele>
        <time>2024-06-02T08:52:27.000Z</time>
      </trkpt>
      <trkpt lat="53.142746" lon="-2.92048">
        <ele>13.72786</ele>
        <time>2024-06-02T08:52:31.000Z</time>
      </trkpt>
      <trkpt lat="53.141823" lon="-2.920912">
        <ele>13.657001</ele>
        <time>2024-06-02T08:52:42.000Z</time>
      </trkpt>
      <trkpt lat="53.140582" lon="-2.921373">
        <ele>13.856141</ele>
        <time>2024-06-02T08:52:56.000Z</time>
      </trkpt>
      <trkpt lat="53.139586" lon="-2.921706">
        <ele>13.650011</ele>
        <time>2024-06-02T08:53:07.000Z</time>
      </trkpt>
      <trkpt lat="53.139137" lon="-2.921856">
        <ele>13.499768</ele>
        <time>2024-06-02T08:53:12.000Z</time>
      </trkpt>
      <trkpt lat="53.138802" lon="-2.922016">
        <ele>13.384554</ele>
        <time>2024-06-02T08:53:16.000Z</time>
      </trkpt>
      <trkpt lat="53.138477" lon="-2.92227">
        <ele>13.256414</ele>
        <time>2024-06-02T08:53:20.000Z</time>
      </trkpt>
      <trkpt lat="53.138272" lon="-2.922547">
        <ele>13.15625</ele>
        <time>2024-06-02T08:53:23.000Z</time>
      </trkpt>
      <trkpt lat="53.137875" lon="-2.923355">
        <ele>12.911729</ele>
        <time>2024-06-02T08:53:30.000Z</time>
      </trkpt>
      <trkpt lat="53.137515" lon="-2.924018">
        <ele>12.703726</ele>
        <time>2024-06-02T08:53:36.000Z</time>
      </trkpt>
      <trkpt lat="53.137292" lon="-2.924412">
        <ele>12.602871</ele>
        <time>2024-06-02T08:53:40.000Z</time>
      </trkpt>
      <trkpt lat="53.137128" lon="-2.924681">
        <ele>12.59287</ele>
        <time>2024-06-02T08:53:43.000Z</time>
      </trkpt>
      <trkpt lat="53.136778" lon="-2.925037">
        <ele>12.574408</ele>
        <time>2024-06-02T08:53:48.000Z</time>
      </trkpt>
      <trkpt lat="53.136513" lon="-2.925226">
        <ele>12.561293</ele>
        <time>2024-06-02T08:53:51.000Z</time>
      </trkpt>
      <trkpt lat="53.136385" lon="-2.925316">
        <ele>12.555412</ele>
        <time>2024-06-02T08:53:53.000Z</time>
      </trkpt>
      <trkpt lat="53.135759" lon="-2.925717">
        <ele>12.538508</ele>
        <time>2024-06-02T08:54:00.000Z</time>
      </trkpt>
      <trkpt lat="53.134272" lon="-2.926748">
        <ele>13.582153</ele>
        <time>2024-06-02T08:54:18.000Z</time>
      </trkpt>
      <trkpt lat="53.133698" lon="-2.92714">
        <ele>14.170526</ele>
        <time>2024-06-02T08:54:25.000Z</time>
      </trkpt>
      <trkpt lat="53.13365" lon="-2.927175">
        <ele>14.208671</ele>
        <time>2024-06-02T08:54:26.000Z</time>
      </trkpt>
      <trkpt lat="53.13326" lon="-2.927509">
        <ele>14.676576</ele>
        <time>2024-06-02T08:54:31.000Z</time>
      </trkpt>
      <trkpt lat="53.133186" lon="-2.927562">
        <ele>14.74329</ele>
        <time>2024-06-02T08:54:32.000Z</time>
      </trkpt>
      <trkpt lat="53.131986" lon="-2.928455">
        <ele>16.247595</ele>
        <time>2024-06-02T08:54:47.000Z</time>
      </trkpt>
      <trkpt lat="53.131772" lon="-2.928664">
        <ele>16.567185</ele>
        <time>2024-06-02T08:54:50.000Z</time>
      </trkpt>
      <trkpt lat="53.131505" lon="-2.928908">
        <ele>16.959782</ele>
        <time>2024-06-02T08:54:53.000Z</time>
      </trkpt>
      <trkpt lat="53.13141" lon="-2.929013">
        <ele>17.102993</ele>
        <time>2024-06-02T08:54:54.000Z</time>
      </trkpt>
      <trkpt lat="53.131046" lon="-2.929377">
        <ele>17.644897</ele>
        <time>2024-06-02T08:54:59.000Z</time>
      </trkpt>
      <trkpt lat="53.131013" lon="-2.929417">
        <ele>17.709371</ele>
        <time>2024-06-02T08:54:59.000Z</time>
      </trkpt>
      <trkpt lat="53.130161" lon="-2.930087">
        <ele>18.874931</ele>
        <time>2024-06-02T08:55:09.000Z</time>
      </trkpt>
      <trkpt lat="53.130039" lon="-2.930195">
        <ele>19.047856</ele>
        <time>2024-06-02T08:55:11.000Z</time>
      </trkpt>
      <trkpt lat="53.128663" lon="-2.930936">
        <ele>20.207143</ele>
        <time>2024-06-02T08:55:27.000Z</time>
      </trkpt>
      <trkpt lat="53.128016" lon="-2.931293">
        <ele>20.349819</ele>
        <time>2024-06-02T08:55:35.000Z</time>
      </trkpt>
      <trkpt lat="53.127182" lon="-2.93175">
        <ele>20.377209</ele>
        <time>2024-06-02T08:55:45.000Z</time>
      </trkpt>
      <trkpt lat="53.126662" lon="-2.932008">
        <ele>20.254325</ele>
        <time>2024-06-02T08:55:51.000Z</time>
      </trkpt>
      <trkpt lat="53.125513" lon="-2.932609">
        <ele>19.910843</ele>
        <time>2024-06-02T08:56:04.000Z</time>
      </trkpt>
      <trkpt lat="53.125085" lon="-2.932809">
        <ele>19.710145</ele>
        <time>2024-06-02T08:56:09.000Z</time>
      </trkpt>
      <trkpt lat="53.12475" lon="-2.93297">
        <ele>19.550712</ele>
        <time>2024-06-02T08:56:13.000Z</time>
      </trkpt>
      <trkpt lat="53.124247" lon="-2.933194">
        <ele>19.317689</ele>
        <time>2024-06-02T08:56:19.000Z</time>
      </trkpt>
      <trkpt lat="53.123938" lon="-2.933455">
        <ele>18.919158</ele>
        <time>2024-06-02T08:56:23.000Z</time>
      </trkpt>
      <trkpt lat="53.123691" lon="-2.933774">
        <ele>18.282183</ele>
        <time>2024-06-02T08:56:26.000Z</time>
      </trkpt>
      <trkpt lat="53.123443" lon="-2.934107">
        <ele>17.662811</ele>
        <time>2024-06-02T08:56:30.000Z</time>
      </trkpt>
      <trkpt lat="53.123326" lon="-2.934261">
        <ele>17.368883</ele>
        <time>2024-06-02T08:56:32.000Z</time>
      </trkpt>
      <trkpt lat="53.122766" lon="-2.934929">
        <ele>15.969203</ele>
        <time>2024-06-02T08:56:40.000Z</time>
      </trkpt>
      <trkpt lat="53.122225" lon="-2.935531">
        <ele>14.68755</ele>
        <time>2024-06-02T08:56:47.000Z</time>
      </trkpt>
      <trkpt lat="53.121911" lon="-2.935836">
        <ele>13.95697</ele>
        <time>2024-06-02T08:56:51.000Z</time>
      </trkpt>
      <trkpt lat="53.121729" lon="-2.935975">
        <ele>13.540745</ele>
        <time>2024-06-02T08:56:53.000Z</time>
      </trkpt>
      <trkpt lat="53.1212" lon="-2.936389">
        <ele>12.395503</ele>
        <time>2024-06-02T08:56:59.000Z</time>
      </trkpt>
      <trkpt lat="53.120947" lon="-2.936631">
        <ele>12.040129</ele>
        <time>2024-06-02T08:57:02.000Z</time>
      </trkpt>
      <trkpt lat="53.120783" lon="-2.936811">
        <ele>12.016101</ele>
        <time>2024-06-02T08:57:04.000Z</time>
      </trkpt>
      <trkpt lat="53.120044" lon="-2.937627">
        <ele>11.913872</ele>
        <time>2024-06-02T08:57:14.000Z</time>
      </trkpt>
      <trkpt lat="53.119564" lon="-2.938078">
        <ele>11.850721</ele>
        <time>2024-06-02T08:57:20.000Z</time>
      </trkpt>
      <trkpt lat="53.119229" lon="-2.938294">
        <ele>12.050642</ele>
        <time>2024-06-02T08:57:24.000Z</time>
      </trkpt>
      <trkpt lat="53.11861" lon="-2.938605">
        <ele>12.460464</ele>
        <time>2024-06-02T08:57:31.000Z</time>
      </trkpt>
      <trkpt lat="53.118363" lon="-2.938701">
        <ele>12.619516</ele>
        <time>2024-06-02T08:57:34.000Z</time>
      </trkpt>
      <trkpt lat="53.117965" lon="-2.938891">
        <ele>12.878282</ele>
        <time>2024-06-02T08:57:39.000Z</time>
      </trkpt>
      <trkpt lat="53.117714" lon="-2.939023">
        <ele>13.031224</ele>
        <time>2024-06-02T08:57:42.000Z</time>
      </trkpt>
      <trkpt lat="53.116283" lon="-2.938854">
        <ele>13.643906</ele>
        <time>2024-06-02T08:57:58.000Z</time>
      </trkpt>
      <trkpt lat="53.116016" lon="-2.938875">
        <ele>13.763871</ele>
        <time>2024-06-02T08:58:01.000Z</time>
      </trkpt>
      <trkpt lat="53.115121" lon="-2.938924">
        <ele>14.063211</ele>
        <time>2024-06-02T08:58:11.000Z</time>
      </trkpt>
      <trkpt lat="53.114844" lon="-2.938956">
        <ele>14.157606</ele>
        <time>2024-06-02T08:58:14.000Z</time>
      </trkpt>
      <trkpt lat="53.114486" lon="-2.939109">
        <ele>14.281049</ele>
        <time>2024-06-02T08:58:18.000Z</time>
      </trkpt>
      <trkpt lat="53.113666" lon="-2.939834">
        <ele>14.826719</ele>
        <time>2024-06-02T08:58:28.000Z</time>
      </trkpt>
      <trkpt lat="53.113157" lon="-2.940304">
        <ele>15.215145</ele>
        <time>2024-06-02T08:58:34.000Z</time>
      </trkpt>
      <trkpt lat="53.112887" lon="-2.940611">
        <ele>15.429563</ele>
        <time>2024-06-02T08:58:38.000Z</time>
      </trkpt>
      <trkpt lat="53.112435" lon="-2.941176">
        <ele>15.826383</ele>
        <time>2024-06-02T08:58:44.000Z</time>
      </trkpt>
      <trkpt lat="53.112187" lon="-2.941504">
        <ele>16.054765</ele>
        <time>2024-06-02T08:58:48.000Z</time>
      </trkpt>
      <trkpt lat="53.112131" lon="-2.941609">
        <ele>16.121541</ele>
        <time>2024-06-02T08:58:49.000Z</time>
      </trkpt>
      <trkpt lat="53.111765" lon="-2.94219">
        <ele>16.477769</ele>
        <time>2024-06-02T08:58:55.000Z</time>
      </trkpt>
      <trkpt lat="53.111363" lon="-2.942829">
        <ele>16.88111</ele>
        <time>2024-06-02T08:59:01.000Z</time>
      </trkpt>
      <trkpt lat="53.111133" lon="-2.943115">
        <ele>17.068167</ele>
        <time>2024-06-02T08:59:04.000Z</time>
      </trkpt>
      <trkpt lat="53.110785" lon="-2.943551">
        <ele>17.370628</ele>
        <time>2024-06-02T08:59:09.000Z</time>
      </trkpt>
      <trkpt lat="53.110501" lon="-2.943893">
        <ele>17.603102</ele>
        <time>2024-06-02T08:59:13.000Z</time>
      </trkpt>
      <trkpt lat="53.110363" lon="-2.94407">
        <ele>17.721078</ele>
        <time>2024-06-02T08:59:15.000Z</time>
      </trkpt>
      <trkpt lat="53.109727" lon="-2.944948">
        <ele>18.181915</ele>
        <time>2024-06-02T08:59:24.000Z</time>
      </trkpt>
      <trkpt lat="53.109604" lon="-2.94512">
        <ele>18.245396</ele>
        <time>2024-06-02T08:59:26.000Z</time>
      </trkpt>
      <trkpt lat="53.108968" lon="-2.946051">
        <ele>18.549537</ele>
        <time>2024-06-02T08:59:35.000Z</time>
      </trkpt>
      <trkpt lat="53.108733" lon="-2.946433">
        <ele>18.667935</ele>
        <time>2024-06-02T08:59:39.000Z</time>
      </trkpt>
      <trkpt lat="53.108687" lon="-2.946519">
        <ele>18.694021</ele>
        <time>2024-06-02T08:59:40.000Z</time>
      </trkpt>
      <trkpt lat="53.108556" lon="-2.946821">
        <ele>18.79643</ele>
        <time>2024-06-02T08:59:42.000Z</time>
      </trkpt>
      <trkpt lat="53.108538" lon="-2.94685">
        <ele>18.812806</ele>
        <time>2024-06-02T08:59:42.000Z</time>
      </trkpt>
      <trkpt lat="53.108484" lon="-2.947024">
        <ele>18.876301</ele>
        <time>2024-06-02T08:59:43.000Z</time>
      </trkpt>
      <trkpt lat="53.108409" lon="-2.947294">
        <ele>18.972989</ele>
        <time>2024-06-02T08:59:45.000Z</time>
      </trkpt>
      <trkpt lat="53.108062" lon="-2.94896">
        <ele>19.563359</ele>
        <time>2024-06-02T08:59:57.000Z</time>
      </trkpt>
      <trkpt lat="53.10785" lon="-2.949476">
        <ele>19.778224</ele>
        <time>2024-06-02T09:00:01.000Z</time>
      </trkpt>
      <trkpt lat="53.107627" lon="-2.949687">
        <ele>19.931891</ele>
        <time>2024-06-02T09:00:04.000Z</time>
      </trkpt>
      <trkpt lat="53.107492" lon="-2.949706">
        <ele>20.009094</ele>
        <time>2024-06-02T09:00:06.000Z</time>
      </trkpt>
      <trkpt lat="53.107347" lon="-2.949732">
        <ele>20.103943</ele>
        <time>2024-06-02T09:00:08.000Z</time>
      </trkpt>
      <trkpt lat="53.107164" lon="-2.949745">
        <ele>20.21395</ele>
        <time>2024-06-02T09:00:10.000Z</time>
      </trkpt>
      <trkpt lat="53.10712" lon="-2.949767">
        <ele>20.235705</ele>
        <time>2024-06-02T09:00:11.000Z</time>
      </trkpt>
      <trkpt lat="53.106928" lon="-2.949921">
        <ele>20.373381</ele>
        <time>2024-06-02T09:00:13.000Z</time>
      </trkpt>
      <trkpt lat="53.106807" lon="-2.950028">
        <ele>20.448843</ele>
        <time>2024-06-02T09:00:15.000Z</time>
      </trkpt>
      <trkpt lat="53.106602" lon="-2.950203">
        <ele>20.592541</ele>
        <time>2024-06-02T09:00:18.000Z</time>
      </trkpt>
      <trkpt lat="53.106319" lon="-2.950435">
        <ele>20.776969</ele>
        <time>2024-06-02T09:00:22.000Z</time>
      </trkpt>
      <trkpt lat="53.106229" lon="-2.95054">
        <ele>20.800439</ele>
        <time>2024-06-02T09:00:23.000Z</time>
      </trkpt>
      <trkpt lat="53.10468" lon="-2.952057">
        <ele>20.095014</ele>
        <time>2024-06-02T09:00:43.000Z</time>
      </trkpt>
      <trkpt lat="53.104212" lon="-2.952524">
        <ele>20.141645</ele>
        <time>2024-06-02T09:00:49.000Z</time>
      </trkpt>
      <trkpt lat="53.104192" lon="-2.952488">
        <ele>20.144805</ele>
        <time>2024-06-02T09:00:49.000Z</time>
      </trkpt>
      <trkpt lat="53.104082" lon="-2.95246">
        <ele>20.153934</ele>
        <time>2024-06-02T09:00:50.000Z</time>
      </trkpt>
      <trkpt lat="53.104047" lon="-2.95249">
        <ele>20.157095</ele>
        <time>2024-06-02T09:00:50.000Z</time>
      </trkpt>
      <trkpt lat="53.104022" lon="-2.952545">
        <ele>20.160291</ele>
        <time>2024-06-02T09:00:50.000Z</time>
      </trkpt>
      <trkpt lat="53.104009" lon="-2.952658">
        <ele>20.166523</ele>
        <time>2024-06-02T09:00:51.000Z</time>
      </trkpt>
      <trkpt lat="53.104022" lon="-2.952715">
        <ele>20.169705</ele>
        <time>2024-06-02T09:00:51.000Z</time>
      </trkpt>
      <trkpt lat="53.102827" lon="-2.953901">
        <ele>21.0327</ele>
        <time>2024-06-02T09:01:06.000Z</time>
      </trkpt>
      <trkpt lat="53.102068" lon="-2.954655">
        <ele>22.351116</ele>
        <time>2024-06-02T09:01:16.000Z</time>
      </trkpt>
      <trkpt lat="53.101844" lon="-2.955024">
        <ele>22.85163</ele>
        <time>2024-06-02T09:01:20.000Z</time>
      </trkpt>
      <trkpt lat="53.101727" lon="-2.955234">
        <ele>23.273552</ele>
        <time>2024-06-02T09:01:22.000Z</time>
      </trkpt>
      <trkpt lat="53.101088" lon="-2.956483">
        <ele>26.837473</ele>
        <time>2024-06-02T09:01:33.000Z</time>
      </trkpt>
      <trkpt lat="53.100782" lon="-2.956953">
        <ele>28.343727</ele>
        <time>2024-06-02T09:01:38.000Z</time>
      </trkpt>
      <trkpt lat="53.100766" lon="-2.956987">
        <ele>28.417115</ele>
        <time>2024-06-02T09:01:38.000Z</time>
      </trkpt>
      <trkpt lat="53.100598" lon="-2.957227">
        <ele>29.224164</ele>
        <time>2024-06-02T09:01:40.000Z</time>
      </trkpt>
      <trkpt lat="53.100417" lon="-2.957444">
        <ele>30.178627</ele>
        <time>2024-06-02T09:01:42.000Z</time>
      </trkpt>
      <trkpt lat="53.100264" lon="-2.957648">
        <ele>31.066156</ele>
        <time>2024-06-02T09:01:44.000Z</time>
      </trkpt>
      <trkpt lat="53.099888" lon="-2.957991">
        <ele>32.981549</ele>
        <time>2024-06-02T09:01:49.000Z</time>
      </trkpt>
      <trkpt lat="53.099622" lon="-2.958183">
        <ele>34.353571</ele>
        <time>2024-06-02T09:01:52.000Z</time>
      </trkpt>
      <trkpt lat="53.099431" lon="-2.958172">
        <ele>35.217511</ele>
        <time>2024-06-02T09:01:54.000Z</time>
      </trkpt>
      <trkpt lat="53.099226" lon="-2.958019">
        <ele>36.237059</ele>
        <time>2024-06-02T09:01:56.000Z</time>
      </trkpt>
      <trkpt lat="53.098751" lon="-2.957685">
        <ele>38.455706</ele>
        <time>2024-06-02T09:02:02.000Z</time>
      </trkpt>
      <trkpt lat="53.098446" lon="-2.957517">
        <ele>39.730897</ele>
        <time>2024-06-02T09:02:06.000Z</time>
      </trkpt>
      <trkpt lat="53.098218" lon="-2.957441">
        <ele>40.661996</ele>
        <time>2024-06-02T09:02:09.000Z</time>
      </trkpt>
      <trkpt lat="53.097595" lon="-2.957335">
        <ele>43.11103</ele>
        <time>2024-06-02T09:02:16.000Z</time>
      </trkpt>
      <trkpt lat="53.097332" lon="-2.9573">
        <ele>44.138884</ele>
        <time>2024-06-02T09:02:19.000Z</time>
      </trkpt>
      <trkpt lat="53.096915" lon="-2.957239">
        <ele>45.346995</ele>
        <time>2024-06-02T09:02:24.000Z</time>
      </trkpt>
      <trkpt lat="53.096749" lon="-2.957248">
        <ele>45.729919</ele>
        <time>2024-06-02T09:02:26.000Z</time>
      </trkpt>
      <trkpt lat="53.096307" lon="-2.957143">
        <ele>46.784044</ele>
        <time>2024-06-02T09:02:31.000Z</time>
      </trkpt>
      <trkpt lat="53.096056" lon="-2.957007">
        <ele>47.406417</ele>
        <time>2024-06-02T09:02:34.000Z</time>
      </trkpt>
      <trkpt lat="53.095657" lon="-2.956761">
        <ele>48.450008</ele>
        <time>2024-06-02T09:02:39.000Z</time>
      </trkpt>
      <trkpt lat="53.095258" lon="-2.956463">
        <ele>48.651305</ele>
        <time>2024-06-02T09:02:44.000Z</time>
      </trkpt>
      <trkpt lat="53.095263" lon="-2.95624">
        <ele>48.445213</ele>
        <time>2024-06-02T09:02:45.000Z</time>
      </trkpt>
      <trkpt lat="53.095043" lon="-2.955497">
        <ele>47.691152</ele>
        <time>2024-06-02T09:02:51.000Z</time>
      </trkpt>
      <trkpt lat="53.094156" lon="-2.954489">
        <ele>46.185404</ele>
        <time>2024-06-02T09:03:03.000Z</time>
      </trkpt>
      <trkpt lat="53.093498" lon="-2.953873">
        <ele>45.825479</ele>
        <time>2024-06-02T09:03:11.000Z</time>
      </trkpt>
      <trkpt lat="53.092553" lon="-2.95301">
        <ele>45.739183</ele>
        <time>2024-06-02T09:03:23.000Z</time>
      </trkpt>
      <trkpt lat="53.092217" lon="-2.952841">
        <ele>46.603514</ele>
        <time>2024-06-02T09:03:27.000Z</time>
      </trkpt>
      <trkpt lat="53.091838" lon="-2.952785">
        <ele>47.533889</ele>
        <time>2024-06-02T09:03:31.000Z</time>
      </trkpt>
      <trkpt lat="53.091186" lon="-2.952626">
        <ele>49.152343</ele>
        <time>2024-06-02T09:03:38.000Z</time>
      </trkpt>
      <trkpt lat="53.090798" lon="-2.952386">
        <ele>50.028956</ele>
        <time>2024-06-02T09:03:43.000Z</time>
      </trkpt>
      <trkpt lat="53.090295" lon="-2.952234">
        <ele>50.929493</ele>
        <time>2024-06-02T09:03:49.000Z</time>
      </trkpt>
      <trkpt lat="53.090098" lon="-2.952088">
        <ele>51.305252</ele>
        <time>2024-06-02T09:03:51.000Z</time>
      </trkpt>
      <trkpt lat="53.089516" lon="-2.951478">
        <ele>52.487403</ele>
        <time>2024-06-02T09:03:59.000Z</time>
      </trkpt>
      <trkpt lat="53.088316" lon="-2.95048">
        <ele>53.607828</ele>
        <time>2024-06-02T09:04:14.000Z</time>
      </trkpt>
      <trkpt lat="53.087515" lon="-2.949655">
        <ele>54.442273</ele>
        <time>2024-06-02T09:04:24.000Z</time>
      </trkpt>
      <trkpt lat="53.087037" lon="-2.949195">
        <ele>55.21986</ele>
        <time>2024-06-02T09:04:30.000Z</time>
      </trkpt>
      <trkpt lat="53.086944" lon="-2.94909">
        <ele>55.384773</ele>
        <time>2024-06-02T09:04:31.000Z</time>
      </trkpt>
      <trkpt lat="53.085703" lon="-2.948503">
        <ele>56.666207</ele>
        <time>2024-06-02T09:04:45.000Z</time>
      </trkpt>
      <trkpt lat="53.084632" lon="-2.947678">
        <ele>56.767177</ele>
        <time>2024-06-02T09:04:58.000Z</time>
      </trkpt>
      <trkpt lat="53.083665" lon="-2.947169">
        <ele>56.751295</ele>
        <time>2024-06-02T09:05:09.000Z</time>
      </trkpt>
      <trkpt lat="53.082261" lon="-2.946442">
        <ele>57.603327</ele>
        <time>2024-06-02T09:05:25.000Z</time>
      </trkpt>
      <trkpt lat="53.081433" lon="-2.946157">
        <ele>59.174876</ele>
        <time>2024-06-02T09:05:34.000Z</time>
      </trkpt>
      <trkpt lat="53.08083" lon="-2.94622">
        <ele>60.206827</ele>
        <time>2024-06-02T09:05:41.000Z</time>
      </trkpt>
      <trkpt lat="53.07924" lon="-2.946963">
        <ele>62.086554</ele>
        <time>2024-06-02T09:05:59.000Z</time>
      </trkpt>
      <trkpt lat="53.079026" lon="-2.947055">
        <ele>61.954381</ele>
        <time>2024-06-02T09:06:01.000Z</time>
      </trkpt>
      <trkpt lat="53.0786" lon="-2.947219">
        <ele>61.683308</ele>
        <time>2024-06-02T09:06:06.000Z</time>
      </trkpt>
      <trkpt lat="53.078259" lon="-2.94728">
        <ele>61.466266</ele>
        <time>2024-06-02T09:06:10.000Z</time>
      </trkpt>
      <trkpt lat="53.078" lon="-2.947235">
        <ele>61.303109</ele>
        <time>2024-06-02T09:06:13.000Z</time>
      </trkpt>
      <trkpt lat="53.077037" lon="-2.946714">
        <ele>61.390829</ele>
        <time>2024-06-02T09:06:24.000Z</time>
      </trkpt>
      <trkpt lat="53.076773" lon="-2.946638">
        <ele>61.637911</ele>
        <time>2024-06-02T09:06:27.000Z</time>
      </trkpt>
      <trkpt lat="53.076461" lon="-2.946587">
        <ele>61.921216</ele>
        <time>2024-06-02T09:06:30.000Z</time>
      </trkpt>
      <trkpt lat="53.076461" lon="-2.946602">
        <ele>61.931382</ele>
        <time>2024-06-02T09:06:30.000Z</time>
      </trkpt>
      <trkpt lat="53.076167" lon="-2.946624">
        <ele>62.199297</ele>
        <time>2024-06-02T09:06:33.000Z</time>
      </trkpt>
      <trkpt lat="53.07599" lon="-2.946513">
        <ele>62.37117</ele>
        <time>2024-06-02T09:06:35.000Z</time>
      </trkpt>
      <trkpt lat="53.075289" lon="-2.945783">
        <ele>64.407359</ele>
        <time>2024-06-02T09:06:44.000Z</time>
      </trkpt>
      <trkpt lat="53.074994" lon="-2.945602">
        <ele>65.433769</ele>
        <time>2024-06-02T09:06:47.000Z</time>
      </trkpt>
      <trkpt lat="53.074505" lon="-2.945351">
        <ele>67.056591</ele>
        <time>2024-06-02T09:06:53.000Z</time>
      </trkpt>
      <trkpt lat="53.074411" lon="-2.945389">
        <ele>67.379529</ele>
        <time>2024-06-02T09:06:54.000Z</time>
      </trkpt>
      <trkpt lat="53.074337" lon="-2.9455">
        <ele>67.714451</ele>
        <time>2024-06-02T09:06:55.000Z</time>
      </trkpt>
      <trkpt lat="53.074313" lon="-2.945713">
        <ele>68.153443</ele>
        <time>2024-06-02T09:06:56.000Z</time>
      </trkpt>
      <trkpt lat="53.074397" lon="-2.946342">
        <ele>69.399547</ele>
        <time>2024-06-02T09:07:00.000Z</time>
      </trkpt>
      <trkpt lat="53.074409" lon="-2.946503">
        <ele>69.718641</ele>
        <time>2024-06-02T09:07:01.000Z</time>
      </trkpt>
      <trkpt lat="53.074409" lon="-2.946603">
        <ele>69.912041</ele>
        <time>2024-06-02T09:07:02.000Z</time>
      </trkpt>
      <trkpt lat="53.074408" lon="-2.946665">
        <ele>70.050547</ele>
        <time>2024-06-02T09:07:02.000Z</time>
      </trkpt>
      <trkpt lat="53.074404" lon="-2.946694">
        <ele>70.110494</ele>
        <time>2024-06-02T09:07:02.000Z</time>
      </trkpt>
      <trkpt lat="53.074345" lon="-2.94688">
        <ele>70.521943</ele>
        <time>2024-06-02T09:07:03.000Z</time>
      </trkpt>
      <trkpt lat="53.074191" lon="-2.947303">
        <ele>71.471974</ele>
        <time>2024-06-02T09:07:06.000Z</time>
      </trkpt>
      <trkpt lat="53.074141" lon="-2.947391">
        <ele>71.682732</ele>
        <time>2024-06-02T09:07:07.000Z</time>
      </trkpt>
      <trkpt lat="53.074136" lon="-2.947441">
        <ele>71.792629</ele>
        <time>2024-06-02T09:07:07.000Z</time>
      </trkpt>
      <trkpt lat="53.07406" lon="-2.947714">
        <ele>72.367207</ele>
        <time>2024-06-02T09:07:09.000Z</time>
      </trkpt>
      <trkpt lat="53.07397" lon="-2.948204">
        <ele>73.400392</ele>
        <time>2024-06-02T09:07:12.000Z</time>
      </trkpt>
      <trkpt lat="53.073826" lon="-2.948534">
        <ele>74.164434</ele>
        <time>2024-06-02T09:07:15.000Z</time>
      </trkpt>
      <trkpt lat="53.073097" lon="-2.94992">
        <ele>75.387721</ele>
        <time>2024-06-02T09:07:27.000Z</time>
      </trkpt>
      <trkpt lat="53.073079" lon="-2.949979">
        <ele>75.422609</ele>
        <time>2024-06-02T09:07:27.000Z</time>
      </trkpt>
      <trkpt lat="53.073016" lon="-2.950157">
        <ele>75.550909</ele>
        <time>2024-06-02T09:07:28.000Z</time>
      </trkpt>
      <trkpt lat="53.072938" lon="-2.950628">
        <ele>75.852706</ele>
        <time>2024-06-02T09:07:31.000Z</time>
      </trkpt>
      <trkpt lat="53.072931" lon="-2.950668">
        <ele>75.870873</ele>
        <time>2024-06-02T09:07:31.000Z</time>
      </trkpt>
      <trkpt lat="53.072837" lon="-2.950997">
        <ele>76.110649</ele>
        <time>2024-06-02T09:07:33.000Z</time>
      </trkpt>
      <trkpt lat="53.072577" lon="-2.951829">
        <ele>75.369026</ele>
        <time>2024-06-02T09:07:39.000Z</time>
      </trkpt>
      <trkpt lat="53.072422" lon="-2.952979">
        <ele>74.392772</ele>
        <time>2024-06-02T09:07:47.000Z</time>
      </trkpt>
      <trkpt lat="53.071879" lon="-2.954931">
        <ele>73.134529</ele>
        <time>2024-06-02T09:08:01.000Z</time>
      </trkpt>
      <trkpt lat="53.071076" lon="-2.956598">
        <ele>72.65584</ele>
        <time>2024-06-02T09:08:15.000Z</time>
      </trkpt>
      <trkpt lat="53.070575" lon="-2.957354">
        <ele>73.338075</ele>
        <time>2024-06-02T09:08:23.000Z</time>
      </trkpt>
      <trkpt lat="53.070385" lon="-2.957609">
        <ele>73.582151</ele>
        <time>2024-06-02T09:08:26.000Z</time>
      </trkpt>
      <trkpt lat="53.070352" lon="-2.957629">
        <ele>73.604352</ele>
        <time>2024-06-02T09:08:26.000Z</time>
      </trkpt>
      <trkpt lat="53.06964" lon="-2.958322">
        <ele>74.426266</ele>
        <time>2024-06-02T09:08:35.000Z</time>
      </trkpt>
      <trkpt lat="53.069546" lon="-2.958404">
        <ele>74.512967</ele>
        <time>2024-06-02T09:08:36.000Z</time>
      </trkpt>
      <trkpt lat="53.068913" lon="-2.959148">
        <ele>75.250897</ele>
        <time>2024-06-02T09:08:45.000Z</time>
      </trkpt>
      <trkpt lat="53.068813" lon="-2.959379">
        <ele>75.427911</ele>
        <time>2024-06-02T09:08:47.000Z</time>
      </trkpt>
      <trkpt lat="53.06876" lon="-2.959534">
        <ele>75.524545</ele>
        <time>2024-06-02T09:08:48.000Z</time>
      </trkpt>
      <trkpt lat="53.068714" lon="-2.959668">
        <ele>75.612819</ele>
        <time>2024-06-02T09:08:49.000Z</time>
      </trkpt>
      <trkpt lat="53.068644" lon="-2.960107">
        <ele>75.867656</ele>
        <time>2024-06-02T09:08:52.000Z</time>
      </trkpt>
      <trkpt lat="53.068563" lon="-2.961448">
        <ele>75.8039</ele>
        <time>2024-06-02T09:09:01.000Z</time>
      </trkpt>
      <trkpt lat="53.067813" lon="-2.961644">
        <ele>75.676806</ele>
        <time>2024-06-02T09:09:09.000Z</time>
      </trkpt>
      <trkpt lat="53.067226" lon="-2.961953">
        <ele>75.717082</ele>
        <time>2024-06-02T09:09:16.000Z</time>
      </trkpt>
      <trkpt lat="53.066686" lon="-2.962543">
        <ele>75.905938</ele>
        <time>2024-06-02T09:09:23.000Z</time>
      </trkpt>
      <trkpt lat="53.06591" lon="-2.963097">
        <ele>76.154656</ele>
        <time>2024-06-02T09:09:32.000Z</time>
      </trkpt>
      <trkpt lat="53.065243" lon="-2.963823">
        <ele>77.353152</ele>
        <time>2024-06-02T09:09:41.000Z</time>
      </trkpt>
      <trkpt lat="53.064557" lon="-2.964941">
        <ele>78.793553</ele>
        <time>2024-06-02T09:09:52.000Z</time>
      </trkpt>
      <trkpt lat="53.064296" lon="-2.965297">
        <ele>79.147176</ele>
        <time>2024-06-02T09:09:56.000Z</time>
      </trkpt>
      <trkpt lat="53.064292" lon="-2.965307">
        <ele>79.166762</ele>
        <time>2024-06-02T09:09:56.000Z</time>
      </trkpt>
      <trkpt lat="53.064143" lon="-2.965447">
        <ele>79.340382</ele>
        <time>2024-06-02T09:09:58.000Z</time>
      </trkpt>
      <trkpt lat="53.063341" lon="-2.966163">
        <ele>80.257357</ele>
        <time>2024-06-02T09:10:08.000Z</time>
      </trkpt>
      <trkpt lat="53.063304" lon="-2.966111">
        <ele>80.305446</ele>
        <time>2024-06-02T09:10:09.000Z</time>
      </trkpt>
      <trkpt lat="53.063282" lon="-2.966048">
        <ele>80.353838</ele>
        <time>2024-06-02T09:10:09.000Z</time>
      </trkpt>
      <trkpt lat="53.063231" lon="-2.966008">
        <ele>80.402352</ele>
        <time>2024-06-02T09:10:10.000Z</time>
      </trkpt>
      <trkpt lat="53.063179" lon="-2.965981">
        <ele>80.450855</ele>
        <time>2024-06-02T09:10:11.000Z</time>
      </trkpt>
      <trkpt lat="53.063032" lon="-2.965581">
        <ele>80.638611</ele>
        <time>2024-06-02T09:10:14.000Z</time>
      </trkpt>
      <trkpt lat="53.062313" lon="-2.962438">
        <ele>80.16459</ele>
        <time>2024-06-02T09:10:36.000Z</time>
      </trkpt>
      <trkpt lat="53.061808" lon="-2.960876">
        <ele>79.490732</ele>
        <time>2024-06-02T09:10:48.000Z</time>
      </trkpt>
      <trkpt lat="53.061231" lon="-2.95975">
        <ele>78.604755</ele>
        <time>2024-06-02T09:10:58.000Z</time>
      </trkpt>
      <trkpt lat="53.060183" lon="-2.958432">
        <ele>76.872355</ele>
        <time>2024-06-02T09:11:13.000Z</time>
      </trkpt>
      <trkpt lat="53.059847" lon="-2.958124">
        <ele>76.061998</ele>
        <time>2024-06-02T09:11:17.000Z</time>
      </trkpt>
      <trkpt lat="53.059682" lon="-2.957986">
        <ele>75.669634</ele>
        <time>2024-06-02T09:11:19.000Z</time>
      </trkpt>
      <trkpt lat="53.059471" lon="-2.957774">
        <ele>75.149841</ele>
        <time>2024-06-02T09:11:22.000Z</time>
      </trkpt>
      <trkpt lat="53.05942" lon="-2.957637">
        <ele>74.947809</ele>
        <time>2024-06-02T09:11:23.000Z</time>
      </trkpt>
      <trkpt lat="53.059389" lon="-2.957478">
        <ele>74.721797</ele>
        <time>2024-06-02T09:11:24.000Z</time>
      </trkpt>
      <trkpt lat="53.059398" lon="-2.957289">
        <ele>74.466627</ele>
        <time>2024-06-02T09:11:25.000Z</time>
      </trkpt>
      <trkpt lat="53.059376" lon="-2.957139">
        <ele>74.285462</ele>
        <time>2024-06-02T09:11:26.000Z</time>
      </trkpt>
      <trkpt lat="53.059332" lon="-2.957029">
        <ele>74.106342</ele>
        <time>2024-06-02T09:11:27.000Z</time>
      </trkpt>
      <trkpt lat="53.059261" lon="-2.95691">
        <ele>73.900955</ele>
        <time>2024-06-02T09:11:28.000Z</time>
      </trkpt>
      <trkpt lat="53.059222" lon="-2.956677">
        <ele>73.590154</ele>
        <time>2024-06-02T09:11:30.000Z</time>
      </trkpt>
      <trkpt lat="53.059219" lon="-2.956561">
        <ele>73.448924</ele>
        <time>2024-06-02T09:11:31.000Z</time>
      </trkpt>
      <trkpt lat="53.059211" lon="-2.956476">
        <ele>73.328387</ele>
        <time>2024-06-02T09:11:32.000Z</time>
      </trkpt>
      <trkpt lat="53.059361" lon="-2.955081">
        <ele>71.488954</ele>
        <time>2024-06-02T09:11:41.000Z</time>
      </trkpt>
      <trkpt lat="53.059523" lon="-2.953991">
        <ele>70.024545</ele>
        <time>2024-06-02T09:11:49.000Z</time>
      </trkpt>
      <trkpt lat="53.059772" lon="-2.952795">
        <ele>68.465628</ele>
        <time>2024-06-02T09:11:57.000Z</time>
      </trkpt>
      <trkpt lat="53.060778" lon="-2.948781">
        <ele>63.818049</ele>
        <time>2024-06-02T09:12:26.000Z</time>
      </trkpt>
      <trkpt lat="53.061028" lon="-2.947566">
        <ele>62.512839</ele>
        <time>2024-06-02T09:12:35.000Z</time>
      </trkpt>
      <trkpt lat="53.061165" lon="-2.946077">
        <ele>61.02629</ele>
        <time>2024-06-02T09:12:45.000Z</time>
      </trkpt>
      <trkpt lat="53.061197" lon="-2.944635">
        <ele>59.552525</ele>
        <time>2024-06-02T09:12:55.000Z</time>
      </trkpt>
      <trkpt lat="53.061085" lon="-2.942991">
        <ele>57.327153</ele>
        <time>2024-06-02T09:13:06.000Z</time>
      </trkpt>
      <trkpt lat="53.060859" lon="-2.941507">
        <ele>55.375323</ele>
        <time>2024-06-02T09:13:16.000Z</time>
      </trkpt>
      <trkpt lat="53.060394" lon="-2.938536">
        <ele>52.519821</ele>
        <time>2024-06-02T09:13:37.000Z</time>
      </trkpt>
      <trkpt lat="53.06042" lon="-2.938118">
        <ele>52.370152</ele>
        <time>2024-06-02T09:13:40.000Z</time>
      </trkpt>
      <trkpt lat="53.060481" lon="-2.938022">
        <ele>52.323431</ele>
        <time>2024-06-02T09:13:41.000Z</time>
      </trkpt>
      <trkpt lat="53.060503" lon="-2.9379">
        <ele>52.276247</ele>
        <time>2024-06-02T09:13:42.000Z</time>
      </trkpt>
      <trkpt lat="53.060527" lon="-2.937787">
        <ele>52.234867</ele>
        <time>2024-06-02T09:13:43.000Z</time>
      </trkpt>
      <trkpt lat="53.060472" lon="-2.93757">
        <ele>52.152494</ele>
        <time>2024-06-02T09:13:45.000Z</time>
      </trkpt>
      <trkpt lat="53.060438" lon="-2.937477">
        <ele>52.111341</ele>
        <time>2024-06-02T09:13:46.000Z</time>
      </trkpt>
      <trkpt lat="53.060565" lon="-2.937074">
        <ele>51.949887</ele>
        <time>2024-06-02T09:13:49.000Z</time>
      </trkpt>
      <trkpt lat="53.060752" lon="-2.936215">
        <ele>51.62415</ele>
        <time>2024-06-02T09:13:55.000Z</time>
      </trkpt>
      <trkpt lat="53.060891" lon="-2.935324">
        <ele>50.939071</ele>
        <time>2024-06-02T09:14:01.000Z</time>
      </trkpt>
      <trkpt lat="53.06118" lon="-2.933249">
        <ele>49.27406</ele>
        <time>2024-06-02T09:14:15.000Z</time>
      </trkpt>
      <trkpt lat="53.061281" lon="-2.932641">
        <ele>48.219808</ele>
        <time>2024-06-02T09:14:19.000Z</time>
      </trkpt>
      <trkpt lat="53.061459" lon="-2.931511">
        <ele>46.314331</ele>
        <time>2024-06-02T09:14:27.000Z</time>
      </trkpt>
      <trkpt lat="53.061544" lon="-2.931058">
        <ele>45.502065</ele>
        <time>2024-06-02T09:14:30.000Z</time>
      </trkpt>
      <trkpt lat="53.061761" lon="-2.930293">
        <ele>44.072046</ele>
        <time>2024-06-02T09:14:36.000Z</time>
      </trkpt>
      <trkpt lat="53.061922" lon="-2.929762">
        <ele>42.831779</ele>
        <time>2024-06-02T09:14:40.000Z</time>
      </trkpt>
      <trkpt lat="53.062173" lon="-2.929014">
        <ele>41.082838</ele>
        <time>2024-06-02T09:14:46.000Z</time>
      </trkpt>
      <trkpt lat="53.062523" lon="-2.928077">
        <ele>38.846579</ele>
        <time>2024-06-02T09:14:53.000Z</time>
      </trkpt>
      <trkpt lat="53.064313" lon="-2.923179">
        <ele>29.663972</ele>
        <time>2024-06-02T09:15:31.000Z</time>
      </trkpt>
      <trkpt lat="53.064355" lon="-2.923058">
        <ele>29.46872</ele>
        <time>2024-06-02T09:15:32.000Z</time>
      </trkpt>
      <trkpt lat="53.065064" lon="-2.920986">
        <ele>27.649684</ele>
        <time>2024-06-02T09:15:48.000Z</time>
      </trkpt>
      <trkpt lat="53.06521" lon="-2.920574">
        <ele>27.359604</ele>
        <time>2024-06-02T09:15:51.000Z</time>
      </trkpt>
      <trkpt lat="53.065788" lon="-2.918933">
        <ele>26.484323</ele>
        <time>2024-06-02T09:16:04.000Z</time>
      </trkpt>
      <trkpt lat="53.066666" lon="-2.91632">
        <ele>25.187321</ele>
        <time>2024-06-02T09:16:24.000Z</time>
      </trkpt>
      <trkpt lat="53.066753" lon="-2.916054">
        <ele>25.038732</ele>
        <time>2024-06-02T09:16:26.000Z</time>
      </trkpt>
      <trkpt lat="53.066819" lon="-2.915893">
        <ele>24.946545</ele>
        <time>2024-06-02T09:16:27.000Z</time>
      </trkpt>
      <trkpt lat="53.067057" lon="-2.915138">
        <ele>24.53403</ele>
        <time>2024-06-02T09:16:33.000Z</time>
      </trkpt>
      <trkpt lat="53.067718" lon="-2.912986">
        <ele>22.69723</ele>
        <time>2024-06-02T09:16:49.000Z</time>
      </trkpt>
      <trkpt lat="53.067864" lon="-2.912577">
        <ele>22.318856</ele>
        <time>2024-06-02T09:16:52.000Z</time>
      </trkpt>
      <trkpt lat="53.067894" lon="-2.912463">
        <ele>22.21349</ele>
        <time>2024-06-02T09:16:53.000Z</time>
      </trkpt>
      <trkpt lat="53.068282" lon="-2.911372">
        <ele>21.063185</ele>
        <time>2024-06-02T09:17:01.000Z</time>
      </trkpt>
      <trkpt lat="53.068883" lon="-2.909649">
        <ele>19.145811</ele>
        <time>2024-06-02T09:17:14.000Z</time>
      </trkpt>
      <trkpt lat="53.069704" lon="-2.908241">
        <ele>17.948738</ele>
        <time>2024-06-02T09:17:27.000Z</time>
      </trkpt>
      <trkpt lat="53.071181" lon="-2.906264">
        <ele>16.56733</ele>
        <time>2024-06-02T09:17:48.000Z</time>
      </trkpt>
      <trkpt lat="53.071548" lon="-2.905592">
        <ele>16.252774</ele>
        <time>2024-06-02T09:17:54.000Z</time>
      </trkpt>
      <trkpt lat="53.071604" lon="-2.904995">
        <ele>16.094926</ele>
        <time>2024-06-02T09:17:58.000Z</time>
      </trkpt>
      <trkpt lat="53.0716" lon="-2.903862">
        <ele>15.795164</ele>
        <time>2024-06-02T09:18:06.000Z</time>
      </trkpt>
      <trkpt lat="53.071644" lon="-2.903248">
        <ele>15.633081</ele>
        <time>2024-06-02T09:18:10.000Z</time>
      </trkpt>
      <trkpt lat="53.071886" lon="-2.902649">
        <ele>15.462295</ele>
        <time>2024-06-02T09:18:15.000Z</time>
      </trkpt>
      <trkpt lat="53.072632" lon="-2.901363">
        <ele>15.344717</ele>
        <time>2024-06-02T09:18:27.000Z</time>
      </trkpt>
      <trkpt lat="53.072885" lon="-2.900902">
        <ele>15.303931</ele>
        <time>2024-06-02T09:18:31.000Z</time>
      </trkpt>
      <trkpt lat="53.073085" lon="-2.900231">
        <ele>15.381942</ele>
        <time>2024-06-02T09:18:36.000Z</time>
      </trkpt>
      <trkpt lat="53.073201" lon="-2.899352">
        <ele>15.750961</ele>
        <time>2024-06-02T09:18:42.000Z</time>
      </trkpt>
      <trkpt lat="53.073357" lon="-2.897739">
        <ele>16.42737</ele>
        <time>2024-06-02T09:18:53.000Z</time>
      </trkpt>
      <trkpt lat="53.073437" lon="-2.89707">
        <ele>16.574981</ele>
        <time>2024-06-02T09:18:58.000Z</time>
      </trkpt>
      <trkpt lat="53.073576" lon="-2.895144">
        <ele>16.8586</ele>
        <time>2024-06-02T09:19:11.000Z</time>
      </trkpt>
      <trkpt lat="53.073604" lon="-2.894941">
        <ele>16.887926</ele>
        <time>2024-06-02T09:19:12.000Z</time>
      </trkpt>
      <trkpt lat="53.073619" lon="-2.89442">
        <ele>16.889545</ele>
        <time>2024-06-02T09:19:15.000Z</time>
      </trkpt>
      <trkpt lat="53.07369" lon="-2.893198">
        <ele>16.518365</ele>
        <time>2024-06-02T09:19:23.000Z</time>
      </trkpt>
      <trkpt lat="53.073724" lon="-2.892385">
        <ele>16.278095</ele>
        <time>2024-06-02T09:19:28.000Z</time>
      </trkpt>
      <trkpt lat="53.073719" lon="-2.891853">
        <ele>16.118298</ele>
        <time>2024-06-02T09:19:32.000Z</time>
      </trkpt>
      <trkpt lat="53.073726" lon="-2.890502">
        <ele>15.635252</ele>
        <time>2024-06-02T09:19:41.000Z</time>
      </trkpt>
      <trkpt lat="53.07373" lon="-2.888422">
        <ele>14.851205</ele>
        <time>2024-06-02T09:19:55.000Z</time>
      </trkpt>
      <trkpt lat="53.073807" lon="-2.886966">
        <ele>14.157796</ele>
        <time>2024-06-02T09:20:05.000Z</time>
      </trkpt>
      <trkpt lat="53.074021" lon="-2.884867">
        <ele>12.97154</ele>
        <time>2024-06-02T09:20:19.000Z</time>
      </trkpt>
      <trkpt lat="53.074074" lon="-2.884418">
        <ele>12.654871</ele>
        <time>2024-06-02T09:20:22.000Z</time>
      </trkpt>
      <trkpt lat="53.074134" lon="-2.884093">
        <ele>12.417102</ele>
        <time>2024-06-02T09:20:24.000Z</time>
      </trkpt>
      <trkpt lat="53.074484" lon="-2.882399">
        <ele>11.339501</ele>
        <time>2024-06-02T09:20:36.000Z</time>
      </trkpt>
      <trkpt lat="53.074641" lon="-2.881793">
        <ele>11.179849</ele>
        <time>2024-06-02T09:20:40.000Z</time>
      </trkpt>
      <trkpt lat="53.074777" lon="-2.881208">
        <ele>11.02044</ele>
        <time>2024-06-02T09:20:44.000Z</time>
      </trkpt>
      <trkpt lat="53.075236" lon="-2.879689">
        <ele>10.738816</ele>
        <time>2024-06-02T09:20:55.000Z</time>
      </trkpt>
      <trkpt lat="53.075789" lon="-2.878178">
        <ele>10.967087</ele>
        <time>2024-06-02T09:21:07.000Z</time>
      </trkpt>
      <trkpt lat="53.075857" lon="-2.877976">
        <ele>10.997709</ele>
        <time>2024-06-02T09:21:09.000Z</time>
      </trkpt>
      <trkpt lat="53.076495" lon="-2.876255">
        <ele>11.864123</ele>
        <time>2024-06-02T09:21:23.000Z</time>
      </trkpt>
      <trkpt lat="53.076657" lon="-2.875865">
        <ele>12.128366</ele>
        <time>2024-06-02T09:21:26.000Z</time>
      </trkpt>
      <trkpt lat="53.077664" lon="-2.87309">
        <ele>14.936768</ele>
        <time>2024-06-02T09:21:48.000Z</time>
      </trkpt>
      <trkpt lat="53.077859" lon="-2.872545">
        <ele>15.590319</ele>
        <time>2024-06-02T09:21:52.000Z</time>
      </trkpt>
      <trkpt lat="53.078393" lon="-2.871072">
        <ele>17.07178</ele>
        <time>2024-06-02T09:22:03.000Z</time>
      </trkpt>
      <trkpt lat="53.078828" lon="-2.869923">
        <ele>18.180996</ele>
        <time>2024-06-02T09:22:12.000Z</time>
      </trkpt>
      <trkpt lat="53.079007" lon="-2.869444">
        <ele>18.348859</ele>
        <time>2024-06-02T09:22:16.000Z</time>
      </trkpt>
      <trkpt lat="53.079257" lon="-2.868769">
        <ele>18.413356</ele>
        <time>2024-06-02T09:22:21.000Z</time>
      </trkpt>
      <trkpt lat="53.079649" lon="-2.867426">
        <ele>18.533894</ele>
        <time>2024-06-02T09:22:31.000Z</time>
      </trkpt>
      <trkpt lat="53.079995" lon="-2.866234">
        <ele>18.38939</ele>
        <time>2024-06-02T09:22:40.000Z</time>
      </trkpt>
      <trkpt lat="53.08028" lon="-2.865076">
        <ele>18.184159</ele>
        <time>2024-06-02T09:22:48.000Z</time>
      </trkpt>
      <trkpt lat="53.081007" lon="-2.865699">
        <ele>18.125492</ele>
        <time>2024-06-02T09:22:57.000Z</time>
      </trkpt>
      <trkpt lat="53.081162" lon="-2.865797">
        <ele>18.149764</ele>
        <time>2024-06-02T09:22:59.000Z</time>
      </trkpt>
      <trkpt lat="53.081335" lon="-2.865884">
        <ele>18.176444</ele>
        <time>2024-06-02T09:23:01.000Z</time>
      </trkpt>
      <trkpt lat="53.082139" lon="-2.866079">
        <ele>18.296781</ele>
        <time>2024-06-02T09:23:10.000Z</time>
      </trkpt>
      <trkpt lat="53.083478" lon="-2.866216">
        <ele>18.889325</ele>
        <time>2024-06-02T09:23:25.000Z</time>
      </trkpt>
      <trkpt lat="53.083905" lon="-2.866321">
        <ele>19.106222</ele>
        <time>2024-06-02T09:23:30.000Z</time>
      </trkpt>
      <trkpt lat="53.085698" lon="-2.867563">
        <ele>20.523915</ele>
        <time>2024-06-02T09:23:52.000Z</time>
      </trkpt>
      <trkpt lat="53.085904" lon="-2.867613">
        <ele>20.668356</ele>
        <time>2024-06-02T09:23:54.000Z</time>
      </trkpt>
      <trkpt lat="53.086282" lon="-2.867575">
        <ele>20.873816</ele>
        <time>2024-06-02T09:23:58.000Z</time>
      </trkpt>
      <trkpt lat="53.086675" lon="-2.867554">
        <ele>21.09657</ele>
        <time>2024-06-02T09:24:02.000Z</time>
      </trkpt>
      <trkpt lat="53.087282" lon="-2.867667">
        <ele>21.432393</ele>
        <time>2024-06-02T09:24:09.000Z</time>
      </trkpt>
      <trkpt lat="53.088148" lon="-2.867722">
        <ele>21.442493</ele>
        <time>2024-06-02T09:24:19.000Z</time>
      </trkpt>
      <trkpt lat="53.089024" lon="-2.867552">
        <ele>21.136105</ele>
        <time>2024-06-02T09:24:29.000Z</time>
      </trkpt>
      <trkpt lat="53.089457" lon="-2.867506">
        <ele>20.983744</ele>
        <time>2024-06-02T09:24:34.000Z</time>
      </trkpt>
      <trkpt lat="53.090946" lon="-2.867322">
        <ele>20.4913</ele>
        <time>2024-06-02T09:24:51.000Z</time>
      </trkpt>
      <trkpt lat="53.091544" lon="-2.867249">
        <ele>20.563727</ele>
        <time>2024-06-02T09:24:58.000Z</time>
      </trkpt>
      <trkpt lat="53.092662" lon="-2.86762">
        <ele>21.116754</ele>
        <time>2024-06-02T09:25:11.000Z</time>
      </trkpt>
      <trkpt lat="53.093486" lon="-2.868034">
        <ele>21.394592</ele>
        <time>2024-06-02T09:25:21.000Z</time>
      </trkpt>
      <trkpt lat="53.094071" lon="-2.868405">
        <ele>21.545351</ele>
        <time>2024-06-02T09:25:28.000Z</time>
      </trkpt>
      <trkpt lat="53.094506" lon="-2.868792">
        <ele>21.663222</ele>
        <time>2024-06-02T09:25:33.000Z</time>
      </trkpt>
      <trkpt lat="53.094827" lon="-2.869109">
        <ele>21.711156</ele>
        <time>2024-06-02T09:25:37.000Z</time>
      </trkpt>
      <trkpt lat="53.095442" lon="-2.869427">
        <ele>21.749727</ele>
        <time>2024-06-02T09:25:44.000Z</time>
      </trkpt>
      <trkpt lat="53.09642" lon="-2.870619">
        <ele>21.959582</ele>
        <time>2024-06-02T09:25:57.000Z</time>
      </trkpt>
      <trkpt lat="53.09695" lon="-2.870846">
        <ele>22.246987</ele>
        <time>2024-06-02T09:26:03.000Z</time>
      </trkpt>
      <trkpt lat="53.098141" lon="-2.871056">
        <ele>23.130138</ele>
        <time>2024-06-02T09:26:16.000Z</time>
      </trkpt>
      <trkpt lat="53.09832" lon="-2.871197">
        <ele>23.447175</ele>
        <time>2024-06-02T09:26:18.000Z</time>
      </trkpt>
      <trkpt lat="53.099173" lon="-2.870851">
        <ele>24.852378</ele>
        <time>2024-06-02T09:26:28.000Z</time>
      </trkpt>
      <trkpt lat="53.099525" lon="-2.870738">
        <ele>25.443436</ele>
        <time>2024-06-02T09:26:32.000Z</time>
      </trkpt>
      <trkpt lat="53.099836" lon="-2.870678">
        <ele>26.134848</ele>
        <time>2024-06-02T09:26:35.000Z</time>
      </trkpt>
      <trkpt lat="53.101553" lon="-2.870799">
        <ele>30.726038</ele>
        <time>2024-06-02T09:26:54.000Z</time>
      </trkpt>
      <trkpt lat="53.102114" lon="-2.870809">
        <ele>32.047315</ele>
        <time>2024-06-02T09:27:00.000Z</time>
      </trkpt>
      <trkpt lat="53.102236" lon="-2.87083">
        <ele>32.294902</ele>
        <time>2024-06-02T09:27:01.000Z</time>
      </trkpt>
      <trkpt lat="53.102288" lon="-2.870834">
        <ele>32.414108</ele>
        <time>2024-06-02T09:27:02.000Z</time>
      </trkpt>
      <trkpt lat="53.102484" lon="-2.870854">
        <ele>32.869458</ele>
        <time>2024-06-02T09:27:04.000Z</time>
      </trkpt>
      <trkpt lat="53.102855" lon="-2.871015">
        <ele>33.757716</ele>
        <time>2024-06-02T09:27:08.000Z</time>
      </trkpt>
      <trkpt lat="53.103185" lon="-2.871073">
        <ele>34.522211</ele>
        <time>2024-06-02T09:27:12.000Z</time>
      </trkpt>
      <trkpt lat="53.103846" lon="-2.870948">
        <ele>34.328018</ele>
        <time>2024-06-02T09:27:19.000Z</time>
      </trkpt>
      <trkpt lat="53.104199" lon="-2.870875">
        <ele>34.161887</ele>
        <time>2024-06-02T09:27:23.000Z</time>
      </trkpt>
      <trkpt lat="53.104278" lon="-2.870864">
        <ele>34.127547</ele>
        <time>2024-06-02T09:27:24.000Z</time>
      </trkpt>
      <trkpt lat="53.104642" lon="-2.870722">
        <ele>33.958294</ele>
        <time>2024-06-02T09:27:28.000Z</time>
      </trkpt>
      <trkpt lat="53.10498" lon="-2.870495">
        <ele>33.783808</ele>
        <time>2024-06-02T09:27:32.000Z</time>
      </trkpt>
      <trkpt lat="53.105037" lon="-2.870459">
        <ele>33.644368</ele>
        <time>2024-06-02T09:27:33.000Z</time>
      </trkpt>
      <trkpt lat="53.105567" lon="-2.870199">
        <ele>32.250061</ele>
        <time>2024-06-02T09:27:39.000Z</time>
      </trkpt>
      <trkpt lat="53.105984" lon="-2.870022">
        <ele>31.156952</ele>
        <time>2024-06-02T09:27:44.000Z</time>
      </trkpt>
      <trkpt lat="53.106357" lon="-2.869959">
        <ele>30.205014</ele>
        <time>2024-06-02T09:27:48.000Z</time>
      </trkpt>
      <trkpt lat="53.107038" lon="-2.870073">
        <ele>28.580684</ele>
        <time>2024-06-02T09:27:56.000Z</time>
      </trkpt>
      <trkpt lat="53.108384" lon="-2.870746">
        <ele>25.685086</ele>
        <time>2024-06-02T09:28:12.000Z</time>
      </trkpt>
      <trkpt lat="53.108795" lon="-2.870853">
        <ele>25.289938</ele>
        <time>2024-06-02T09:28:17.000Z</time>
      </trkpt>
      <trkpt lat="53.109023" lon="-2.870927">
        <ele>25.149318</ele>
        <time>2024-06-02T09:28:20.000Z</time>
      </trkpt>
      <trkpt lat="53.109757" lon="-2.871105">
        <ele>24.718896</ele>
        <time>2024-06-02T09:28:28.000Z</time>
      </trkpt>
      <trkpt lat="53.112145" lon="-2.871934">
        <ele>25.198461</ele>
        <time>2024-06-02T09:28:55.000Z</time>
      </trkpt>
      <trkpt lat="53.113366" lon="-2.871939">
        <ele>26.022489</ele>
        <time>2024-06-02T09:29:09.000Z</time>
      </trkpt>
      <trkpt lat="53.115983" lon="-2.871499">
        <ele>27.551319</ele>
        <time>2024-06-02T09:29:38.000Z</time>
      </trkpt>
      <trkpt lat="53.116282" lon="-2.871296">
        <ele>27.542509</ele>
        <time>2024-06-02T09:29:42.000Z</time>
      </trkpt>
      <trkpt lat="53.116698" lon="-2.870803">
        <ele>27.528466</ele>
        <time>2024-06-02T09:29:48.000Z</time>
      </trkpt>
      <trkpt lat="53.117415" lon="-2.870289">
        <ele>27.335008</ele>
        <time>2024-06-02T09:29:57.000Z</time>
      </trkpt>
      <trkpt lat="53.117451" lon="-2.870278">
        <ele>27.315256</ele>
        <time>2024-06-02T09:29:57.000Z</time>
      </trkpt>
      <trkpt lat="53.117911" lon="-2.869968">
        <ele>26.896433</ele>
        <time>2024-06-02T09:30:03.000Z</time>
      </trkpt>
      <trkpt lat="53.119232" lon="-2.868946">
        <ele>25.504393</ele>
        <time>2024-06-02T09:30:19.000Z</time>
      </trkpt>
      <trkpt lat="53.119314" lon="-2.868922">
        <ele>25.405267</ele>
        <time>2024-06-02T09:30:20.000Z</time>
      </trkpt>
      <trkpt lat="53.119532" lon="-2.868791">
        <ele>25.087059</ele>
        <time>2024-06-02T09:30:23.000Z</time>
      </trkpt>
      <trkpt lat="53.121273" lon="-2.868354">
        <ele>22.587546</ele>
        <time>2024-06-02T09:30:43.000Z</time>
      </trkpt>
      <trkpt lat="53.123632" lon="-2.867229">
        <ele>18.469205</ele>
        <time>2024-06-02T09:31:10.000Z</time>
      </trkpt>
      <trkpt lat="53.124207" lon="-2.867107">
        <ele>17.5396</ele>
        <time>2024-06-02T09:31:16.000Z</time>
      </trkpt>
      <trkpt lat="53.125133" lon="-2.866743">
        <ele>16.401646</ele>
        <time>2024-06-02T09:31:27.000Z</time>
      </trkpt>
      <trkpt lat="53.125727" lon="-2.866435">
        <ele>15.654623</ele>
        <time>2024-06-02T09:31:34.000Z</time>
      </trkpt>
      <trkpt lat="53.126489" lon="-2.865957">
        <ele>15.048127</ele>
        <time>2024-06-02T09:31:43.000Z</time>
      </trkpt>
      <trkpt lat="53.126548" lon="-2.865934">
        <ele>15.00515</ele>
        <time>2024-06-02T09:31:44.000Z</time>
      </trkpt>
      <trkpt lat="53.1267" lon="-2.865857">
        <ele>14.900228</ele>
        <time>2024-06-02T09:31:46.000Z</time>
      </trkpt>
      <trkpt lat="53.126843" lon="-2.865818">
        <ele>14.813331</ele>
        <time>2024-06-02T09:31:48.000Z</time>
      </trkpt>
      <trkpt lat="53.126929" lon="-2.865801">
        <ele>14.755005</ele>
        <time>2024-06-02T09:31:49.000Z</time>
      </trkpt>
      <trkpt lat="53.127679" lon="-2.865803">
        <ele>14.268796</ele>
        <time>2024-06-02T09:31:57.000Z</time>
      </trkpt>
      <trkpt lat="53.12802" lon="-2.865652">
        <ele>14.111628</ele>
        <time>2024-06-02T09:32:01.000Z</time>
      </trkpt>
      <trkpt lat="53.128723" lon="-2.865362">
        <ele>13.781145</ele>
        <time>2024-06-02T09:32:09.000Z</time>
      </trkpt>
      <trkpt lat="53.128777" lon="-2.865327">
        <ele>13.751855</ele>
        <time>2024-06-02T09:32:10.000Z</time>
      </trkpt>
      <trkpt lat="53.12896" lon="-2.864849">
        <ele>13.599484</ele>
        <time>2024-06-02T09:32:14.000Z</time>
      </trkpt>
      <trkpt lat="53.129" lon="-2.864724">
        <ele>13.563862</ele>
        <time>2024-06-02T09:32:15.000Z</time>
      </trkpt>
      <trkpt lat="53.12906" lon="-2.864657">
        <ele>13.534452</ele>
        <time>2024-06-02T09:32:16.000Z</time>
      </trkpt>
      <trkpt lat="53.129146" lon="-2.864629">
        <ele>13.511507</ele>
        <time>2024-06-02T09:32:17.000Z</time>
      </trkpt>
      <trkpt lat="53.129601" lon="-2.864803">
        <ele>13.858761</ele>
        <time>2024-06-02T09:32:22.000Z</time>
      </trkpt>
      <trkpt lat="53.129934" lon="-2.865096">
        <ele>14.133406</ele>
        <time>2024-06-02T09:32:26.000Z</time>
      </trkpt>
      <trkpt lat="53.130334" lon="-2.86529">
        <ele>14.444781</ele>
        <time>2024-06-02T09:32:31.000Z</time>
      </trkpt>
      <trkpt lat="53.131334" lon="-2.865455">
        <ele>15.460248</ele>
        <time>2024-06-02T09:32:42.000Z</time>
      </trkpt>
      <trkpt lat="53.134703" lon="-2.865397">
        <ele>19.171759</ele>
        <time>2024-06-02T09:33:19.000Z</time>
      </trkpt>
      <trkpt lat="53.135642" lon="-2.865492">
        <ele>19.058318</ele>
        <time>2024-06-02T09:33:29.000Z</time>
      </trkpt>
      <trkpt lat="53.136449" lon="-2.865717">
        <ele>18.865161</ele>
        <time>2024-06-02T09:33:38.000Z</time>
      </trkpt>
      <trkpt lat="53.137886" lon="-2.865755">
        <ele>18.092973</ele>
        <time>2024-06-02T09:33:54.000Z</time>
      </trkpt>
      <trkpt lat="53.138231" lon="-2.865631">
        <ele>18.222992</ele>
        <time>2024-06-02T09:33:58.000Z</time>
      </trkpt>
      <trkpt lat="53.139083" lon="-2.865086">
        <ele>19.16253</ele>
        <time>2024-06-02T09:34:08.000Z</time>
      </trkpt>
      <trkpt lat="53.140192" lon="-2.864725">
        <ele>20.171078</ele>
        <time>2024-06-02T09:34:21.000Z</time>
      </trkpt>
      <trkpt lat="53.140992" lon="-2.864319">
        <ele>20.754506</ele>
        <time>2024-06-02T09:34:30.000Z</time>
      </trkpt>
      <trkpt lat="53.142682" lon="-2.862863">
        <ele>19.875023</ele>
        <time>2024-06-02T09:34:51.000Z</time>
      </trkpt>
      <trkpt lat="53.143635" lon="-2.862188">
        <ele>18.465962</ele>
        <time>2024-06-02T09:35:03.000Z</time>
      </trkpt>
      <trkpt lat="53.145446" lon="-2.861541">
        <ele>15.830247</ele>
        <time>2024-06-02T09:35:24.000Z</time>
      </trkpt>
      <trkpt lat="53.145573" lon="-2.861511">
        <ele>15.705799</ele>
        <time>2024-06-02T09:35:25.000Z</time>
      </trkpt>
      <trkpt lat="53.146032" lon="-2.861412">
        <ele>15.259353</ele>
        <time>2024-06-02T09:35:30.000Z</time>
      </trkpt>
      <trkpt lat="53.146524" lon="-2.861362">
        <ele>14.795199</ele>
        <time>2024-06-02T09:35:35.000Z</time>
      </trkpt>
      <trkpt lat="53.147838" lon="-2.86191">
        <ele>14.739083</ele>
        <time>2024-06-02T09:35:50.000Z</time>
      </trkpt>
      <trkpt lat="53.148175" lon="-2.861986">
        <ele>14.734375</ele>
        <time>2024-06-02T09:35:54.000Z</time>
      </trkpt>
      <trkpt lat="53.148493" lon="-2.861972">
        <ele>14.548386</ele>
        <time>2024-06-02T09:35:58.000Z</time>
      </trkpt>
      <trkpt lat="53.149488" lon="-2.862073">
        <ele>13.583454</ele>
        <time>2024-06-02T09:36:09.000Z</time>
      </trkpt>
      <trkpt lat="53.14976" lon="-2.862035">
        <ele>13.332394</ele>
        <time>2024-06-02T09:36:12.000Z</time>
      </trkpt>
      <trkpt lat="53.14992" lon="-2.862018">
        <ele>13.173697</ele>
        <time>2024-06-02T09:36:14.000Z</time>
      </trkpt>
      <trkpt lat="53.150879" lon="-2.86172">
        <ele>12.262687</ele>
        <time>2024-06-02T09:36:25.000Z</time>
      </trkpt>
      <trkpt lat="53.15111" lon="-2.861705">
        <ele>12.040152</ele>
        <time>2024-06-02T09:36:28.000Z</time>
      </trkpt>
      <trkpt lat="53.153244" lon="-2.862328">
        <ele>11.525627</ele>
        <time>2024-06-02T09:36:52.000Z</time>
      </trkpt>
      <trkpt lat="53.153962" lon="-2.862344">
        <ele>12.039912</ele>
        <time>2024-06-02T09:37:00.000Z</time>
      </trkpt>
      <trkpt lat="53.154365" lon="-2.862199">
        <ele>12.656404</ele>
        <time>2024-06-02T09:37:05.000Z</time>
      </trkpt>
      <trkpt lat="53.154717" lon="-2.862046">
        <ele>13.196118</ele>
        <time>2024-06-02T09:37:09.000Z</time>
      </trkpt>
      <trkpt lat="53.155223" lon="-2.861911">
        <ele>13.973836</ele>
        <time>2024-06-02T09:37:15.000Z</time>
      </trkpt>
      <trkpt lat="53.156484" lon="-2.861787">
        <ele>16.343769</ele>
        <time>2024-06-02T09:37:29.000Z</time>
      </trkpt>
      <trkpt lat="53.156814" lon="-2.861808">
        <ele>16.976392</ele>
        <time>2024-06-02T09:37:33.000Z</time>
      </trkpt>
      <trkpt lat="53.156902" lon="-2.861806">
        <ele>17.121498</ele>
        <time>2024-06-02T09:37:34.000Z</time>
      </trkpt>
      <trkpt lat="53.158004" lon="-2.861952">
        <ele>19.439883</ele>
        <time>2024-06-02T09:37:46.000Z</time>
      </trkpt>
      <trkpt lat="53.158296" lon="-2.861959">
        <ele>20.057394</ele>
        <time>2024-06-02T09:37:49.000Z</time>
      </trkpt>
      <trkpt lat="53.158572" lon="-2.862019">
        <ele>20.654149</ele>
        <time>2024-06-02T09:37:52.000Z</time>
      </trkpt>
      <trkpt lat="53.159074" lon="-2.862054">
        <ele>21.695369</ele>
        <time>2024-06-02T09:37:58.000Z</time>
      </trkpt>
      <trkpt lat="53.159163" lon="-2.862056">
        <ele>21.795134</ele>
        <time>2024-06-02T09:37:59.000Z</time>
      </trkpt>
      <trkpt lat="53.159256" lon="-2.862066">
        <ele>21.922438</ele>
        <time>2024-06-02T09:38:00.000Z</time>
      </trkpt>
      <trkpt lat="53.15951" lon="-2.862051">
        <ele>22.250271</ele>
        <time>2024-06-02T09:38:03.000Z</time>
      </trkpt>
      <trkpt lat="53.160733" lon="-2.862055">
        <ele>23.866463</ele>
        <time>2024-06-02T09:38:17.000Z</time>
      </trkpt>
      <trkpt lat="53.161279" lon="-2.861833">
        <ele>24.068562</ele>
        <time>2024-06-02T09:38:23.000Z</time>
      </trkpt>
      <trkpt lat="53.161787" lon="-2.861736">
        <ele>24.176084</ele>
        <time>2024-06-02T09:38:29.000Z</time>
      </trkpt>
      <trkpt lat="53.162571" lon="-2.861879">
        <ele>24.342354</ele>
        <time>2024-06-02T09:38:38.000Z</time>
      </trkpt>
      <trkpt lat="53.163456" lon="-2.862184">
        <ele>23.720946</ele>
        <time>2024-06-02T09:38:48.000Z</time>
      </trkpt>
      <trkpt lat="53.163649" lon="-2.862154">
        <ele>23.578835</ele>
        <time>2024-06-02T09:38:50.000Z</time>
      </trkpt>
      <trkpt lat="53.164012" lon="-2.862115">
        <ele>23.32</ele>
        <time>2024-06-02T09:38:54.000Z</time>
      </trkpt>
      <trkpt lat="53.164127" lon="-2.862107">
        <ele>23.241297</ele>
        <time>2024-06-02T09:38:55.000Z</time>
      </trkpt>
      <trkpt lat="53.164946" lon="-2.861948">
        <ele>22.752794</ele>
        <time>2024-06-02T09:39:04.000Z</time>
      </trkpt>
      <trkpt lat="53.166593" lon="-2.861627">
        <ele>22.147916</ele>
        <time>2024-06-02T09:39:22.000Z</time>
      </trkpt>
      <trkpt lat="53.168097" lon="-2.861262">
        <ele>22.377355</ele>
        <time>2024-06-02T09:39:39.000Z</time>
      </trkpt>
      <trkpt lat="53.169715" lon="-2.861136">
        <ele>23.1332</ele>
        <time>2024-06-02T09:39:57.000Z</time>
      </trkpt>
      <trkpt lat="53.170047" lon="-2.861201">
        <ele>23.174385</ele>
        <time>2024-06-02T09:40:01.000Z</time>
      </trkpt>
      <trkpt lat="53.170462" lon="-2.86129">
        <ele>23.215832</ele>
        <time>2024-06-02T09:40:06.000Z</time>
      </trkpt>
      <trkpt lat="53.170582" lon="-2.861329">
        <ele>23.228225</ele>
        <time>2024-06-02T09:40:07.000Z</time>
      </trkpt>
      <trkpt lat="53.1707" lon="-2.86136">
        <ele>23.239899</ele>
        <time>2024-06-02T09:40:08.000Z</time>
      </trkpt>
      <trkpt lat="53.170731" lon="-2.861357">
        <ele>23.243816</ele>
        <time>2024-06-02T09:40:08.000Z</time>
      </trkpt>
      <trkpt lat="53.170815" lon="-2.861395">
        <ele>23.251875</ele>
        <time>2024-06-02T09:40:09.000Z</time>
      </trkpt>
      <trkpt lat="53.170881" lon="-2.861402">
        <ele>23.258723</ele>
        <time>2024-06-02T09:40:10.000Z</time>
      </trkpt>
      <trkpt lat="53.17113" lon="-2.861495">
        <ele>23.28349</ele>
        <time>2024-06-02T09:40:13.000Z</time>
      </trkpt>
      <trkpt lat="53.171183" lon="-2.861478">
        <ele>23.287943</ele>
        <time>2024-06-02T09:40:14.000Z</time>
      </trkpt>
      <trkpt lat="53.171197" lon="-2.861489">
        <ele>23.289351</ele>
        <time>2024-06-02T09:40:14.000Z</time>
      </trkpt>
      <trkpt lat="53.17121" lon="-2.861518">
        <ele>23.292351</ele>
        <time>2024-06-02T09:40:14.000Z</time>
      </trkpt>
      <trkpt lat="53.17122" lon="-2.86156">
        <ele>23.295407</ele>
        <time>2024-06-02T09:40:14.000Z</time>
      </trkpt>
      <trkpt lat="53.171254" lon="-2.861565">
        <ele>23.298325</ele>
        <time>2024-06-02T09:40:14.000Z</time>
      </trkpt>
      <trkpt lat="53.171259" lon="-2.86158">
        <ele>23.298532</ele>
        <time>2024-06-02T09:40:14.000Z</time>
      </trkpt>
      <trkpt lat="53.171326" lon="-2.86156">
        <ele>23.30456</ele>
        <time>2024-06-02T09:40:15.000Z</time>
      </trkpt>
      <trkpt lat="53.171352" lon="-2.861526">
        <ele>23.307639</ele>
        <time>2024-06-02T09:40:15.000Z</time>
      </trkpt>
      <trkpt lat="53.171401" lon="-2.861587">
        <ele>23.314122</ele>
        <time>2024-06-02T09:40:16.000Z</time>
      </trkpt>
      <trkpt lat="53.171862" lon="-2.861851">
        <ele>23.15588</ele>
        <time>2024-06-02T09:40:21.000Z</time>
      </trkpt>
      <trkpt lat="53.17215" lon="-2.862086">
        <ele>23.033275</ele>
        <time>2024-06-02T09:40:25.000Z</time>
      </trkpt>
      <trkpt lat="53.172521" lon="-2.862488">
        <ele>22.861445</ele>
        <time>2024-06-02T09:40:30.000Z</time>
      </trkpt>
      <trkpt lat="53.172674" lon="-2.862633">
        <ele>22.792378</ele>
        <time>2024-06-02T09:40:32.000Z</time>
      </trkpt>
      <trkpt lat="53.172721" lon="-2.862673">
        <ele>22.768522</ele>
        <time>2024-06-02T09:40:33.000Z</time>
      </trkpt>
      <trkpt lat="53.172836" lon="-2.862775">
        <ele>22.722033</ele>
        <time>2024-06-02T09:40:34.000Z</time>
      </trkpt>
      <trkpt lat="53.172897" lon="-2.86283">
        <ele>22.693926</ele>
        <time>2024-06-02T09:40:35.000Z</time>
      </trkpt>
      <trkpt lat="53.173028" lon="-2.862929">
        <ele>22.637362</ele>
        <time>2024-06-02T09:40:37.000Z</time>
      </trkpt>
      <trkpt lat="53.173415" lon="-2.863284">
        <ele>22.361977</ele>
        <time>2024-06-02T09:40:42.000Z</time>
      </trkpt>
      <trkpt lat="53.173635" lon="-2.863486">
        <ele>22.188848</ele>
        <time>2024-06-02T09:40:45.000Z</time>
      </trkpt>
      <trkpt lat="53.173746" lon="-2.863591">
        <ele>22.10859</ele>
        <time>2024-06-02T09:40:46.000Z</time>
      </trkpt>
      <trkpt lat="53.173782" lon="-2.863616">
        <ele>22.082654</ele>
        <time>2024-06-02T09:40:46.000Z</time>
      </trkpt>
      <trkpt lat="53.173897" lon="-2.863711">
        <ele>22.006588</ele>
        <time>2024-06-02T09:40:47.000Z</time>
      </trkpt>
      <trkpt lat="53.173977" lon="-2.863787">
        <ele>21.946332</ele>
        <time>2024-06-02T09:40:48.000Z</time>
      </trkpt>
      <trkpt lat="53.173988" lon="-2.863791">
        <ele>21.935097</ele>
        <time>2024-06-02T09:40:48.000Z</time>
      </trkpt>
      <trkpt lat="53.174229" lon="-2.864019">
        <ele>21.746331</ele>
        <time>2024-06-02T09:40:51.000Z</time>
      </trkpt>
      <trkpt lat="53.174249" lon="-2.864043">
        <ele>21.734696</ele>
        <time>2024-06-02T09:40:51.000Z</time>
      </trkpt>
      <trkpt lat="53.174463" lon="-2.864207">
        <ele>21.575858</ele>
        <time>2024-06-02T09:40:54.000Z</time>
      </trkpt>
      <trkpt lat="53.17451" lon="-2.864244">
        <ele>21.547062</ele>
        <time>2024-06-02T09:40:55.000Z</time>
      </trkpt>
      <trkpt lat="53.174581" lon="-2.864321">
        <ele>21.488144</ele>
        <time>2024-06-02T09:40:56.000Z</time>
      </trkpt>
      <trkpt lat="53.175425" lon="-2.865243">
        <ele>20.633812</ele>
        <time>2024-06-02T09:41:07.000Z</time>
      </trkpt>
      <trkpt lat="53.175435" lon="-2.865271">
        <ele>20.609223</ele>
        <time>2024-06-02T09:41:07.000Z</time>
      </trkpt>
      <trkpt lat="53.175591" lon="-2.865448">
        <ele>20.446831</ele>
        <time>2024-06-02T09:41:09.000Z</time>
      </trkpt>
      <trkpt lat="53.175801" lon="-2.865678">
        <ele>20.23355</ele>
        <time>2024-06-02T09:41:12.000Z</time>
      </trkpt>
      <trkpt lat="53.175825" lon="-2.865688">
        <ele>20.210118</ele>
        <time>2024-06-02T09:41:12.000Z</time>
      </trkpt>
      <trkpt lat="53.17596" lon="-2.865847">
        <ele>20.065699</ele>
        <time>2024-06-02T09:41:14.000Z</time>
      </trkpt>
      <trkpt lat="53.175964" lon="-2.865848">
        <ele>20.061873</ele>
        <time>2024-06-02T09:41:14.000Z</time>
      </trkpt>
      <trkpt lat="53.176038" lon="-2.865917">
        <ele>19.985728</ele>
        <time>2024-06-02T09:41:15.000Z</time>
      </trkpt>
      <trkpt lat="53.177493" lon="-2.867337">
        <ele>18.577095</ele>
        <time>2024-06-02T09:41:34.000Z</time>
      </trkpt>
      <trkpt lat="53.17812" lon="-2.867939">
        <ele>17.621907</ele>
        <time>2024-06-02T09:41:42.000Z</time>
      </trkpt>
      <trkpt lat="53.178522" lon="-2.868239">
        <ele>16.952648</ele>
        <time>2024-06-02T09:41:47.000Z</time>
      </trkpt>
      <trkpt lat="53.178751" lon="-2.868426">
        <ele>16.540345</ele>
        <time>2024-06-02T09:41:50.000Z</time>
      </trkpt>
      <trkpt lat="53.179036" lon="-2.868599">
        <ele>16.083813</ele>
        <time>2024-06-02T09:41:53.000Z</time>
      </trkpt>
      <trkpt lat="53.179296" lon="-2.868717">
        <ele>15.664505</ele>
        <time>2024-06-02T09:41:56.000Z</time>
      </trkpt>
      <trkpt lat="53.17979" lon="-2.869002">
        <ele>15.217984</ele>
        <time>2024-06-02T09:42:02.000Z</time>
      </trkpt>
      <trkpt lat="53.18012" lon="-2.869181">
        <ele>14.941127</ele>
        <time>2024-06-02T09:42:06.000Z</time>
      </trkpt>
      <trkpt lat="53.180229" lon="-2.869226">
        <ele>14.849921</ele>
        <time>2024-06-02T09:42:07.000Z</time>
      </trkpt>
      <trkpt lat="53.180665" lon="-2.869394">
        <ele>14.505</ele>
        <time>2024-06-02T09:42:12.000Z</time>
      </trkpt>
      <trkpt lat="53.181132" lon="-2.869663">
        <ele>14.228326</ele>
        <time>2024-06-02T09:42:17.000Z</time>
      </trkpt>
      <trkpt lat="53.181359" lon="-2.869752">
        <ele>14.444927</ele>
        <time>2024-06-02T09:42:20.000Z</time>
      </trkpt>
      <trkpt lat="53.182112" lon="-2.87011">
        <ele>15.176997</ele>
        <time>2024-06-02T09:42:29.000Z</time>
      </trkpt>
      <trkpt lat="53.182239" lon="-2.870099">
        <ele>15.301493</ele>
        <time>2024-06-02T09:42:30.000Z</time>
      </trkpt>
      <trkpt lat="53.18246" lon="-2.870178">
        <ele>15.497225</ele>
        <time>2024-06-02T09:42:33.000Z</time>
      </trkpt>
      <trkpt lat="53.182901" lon="-2.870259">
        <ele>15.895716</ele>
        <time>2024-06-02T09:42:38.000Z</time>
      </trkpt>
      <trkpt lat="53.18357" lon="-2.870257">
        <ele>16.373265</ele>
        <time>2024-06-02T09:42:45.000Z</time>
      </trkpt>
      <trkpt lat="53.184136" lon="-2.870177">
        <ele>16.771209</ele>
        <time>2024-06-02T09:42:51.000Z</time>
      </trkpt>
      <trkpt lat="53.184168" lon="-2.870171">
        <ele>16.796072</ele>
        <time>2024-06-02T09:42:51.000Z</time>
      </trkpt>
      <trkpt lat="53.185829" lon="-2.869596">
        <ele>17.586816</ele>
        <time>2024-06-02T09:43:10.000Z</time>
      </trkpt>
      <trkpt lat="53.185924" lon="-2.869554">
        <ele>17.620416</ele>
        <time>2024-06-02T09:43:11.000Z</time>
      </trkpt>
      <trkpt lat="53.186087" lon="-2.869507">
        <ele>17.683811</ele>
        <time>2024-06-02T09:43:13.000Z</time>
      </trkpt>
      <trkpt lat="53.18625" lon="-2.869454">
        <ele>17.744769</ele>
        <time>2024-06-02T09:43:15.000Z</time>
      </trkpt>
      <trkpt lat="53.1865" lon="-2.869384">
        <ele>17.716607</ele>
        <time>2024-06-02T09:43:18.000Z</time>
      </trkpt>
      <trkpt lat="53.186814" lon="-2.869299">
        <ele>17.519677</ele>
        <time>2024-06-02T09:43:22.000Z</time>
      </trkpt>
      <trkpt lat="53.186886" lon="-2.869269">
        <ele>17.471765</ele>
        <time>2024-06-02T09:43:23.000Z</time>
      </trkpt>
      <trkpt lat="53.187034" lon="-2.869246">
        <ele>17.38559</ele>
        <time>2024-06-02T09:43:25.000Z</time>
      </trkpt>
      <trkpt lat="53.187481" lon="-2.869115">
        <ele>17.111053</ele>
        <time>2024-06-02T09:43:30.000Z</time>
      </trkpt>
      <trkpt lat="53.187684" lon="-2.869056">
        <ele>16.979315</ele>
        <time>2024-06-02T09:43:32.000Z</time>
      </trkpt>
      <trkpt lat="53.187783" lon="-2.869023">
        <ele>16.92387</ele>
        <time>2024-06-02T09:43:33.000Z</time>
      </trkpt>
      <trkpt lat="53.187844" lon="-2.869013">
        <ele>16.887676</ele>
        <time>2024-06-02T09:43:34.000Z</time>
      </trkpt>
      <trkpt lat="53.18807" lon="-2.869016">
        <ele>16.751043</ele>
        <time>2024-06-02T09:43:37.000Z</time>
      </trkpt>
      <trkpt lat="53.189094" lon="-2.869238">
        <ele>17.721655</ele>
        <time>2024-06-02T09:43:48.000Z</time>
      </trkpt>
      <trkpt lat="53.189439" lon="-2.869389">
        <ele>18.084973</ele>
        <time>2024-06-02T09:43:52.000Z</time>
      </trkpt>
      <trkpt lat="53.189917" lon="-2.869592">
        <ele>18.610382</ele>
        <time>2024-06-02T09:43:57.000Z</time>
      </trkpt>
      <trkpt lat="53.190201" lon="-2.869747">
        <ele>19.120501</ele>
        <time>2024-06-02T09:44:00.000Z</time>
      </trkpt>
      <trkpt lat="53.190423" lon="-2.869888">
        <ele>19.502385</ele>
        <time>2024-06-02T09:44:03.000Z</time>
      </trkpt>
      <trkpt lat="53.190513" lon="-2.86994">
        <ele>19.638223</ele>
        <time>2024-06-02T09:44:04.000Z</time>
      </trkpt>
      <trkpt lat="53.191062" lon="-2.870214">
        <ele>20.592376</ele>
        <time>2024-06-02T09:44:10.000Z</time>
      </trkpt>
      <trkpt lat="53.191209" lon="-2.87022">
        <ele>20.820014</ele>
        <time>2024-06-02T09:44:12.000Z</time>
      </trkpt>
      <trkpt lat="53.191251" lon="-2.870203">
        <ele>20.901895</ele>
        <time>2024-06-02T09:44:12.000Z</time>
      </trkpt>
      <trkpt lat="53.191316" lon="-2.870183">
        <ele>20.984386</ele>
        <time>2024-06-02T09:44:13.000Z</time>
      </trkpt>
      <trkpt lat="53.191493" lon="-2.870086">
        <ele>21.313482</ele>
        <time>2024-06-02T09:44:15.000Z</time>
      </trkpt>
      <trkpt lat="53.191633" lon="-2.870507">
        <ele>21.348496</ele>
        <time>2024-06-02T09:44:18.000Z</time>
      </trkpt>
      <trkpt lat="53.191723" lon="-2.87086">
        <ele>21.050795</ele>
        <time>2024-06-02T09:44:21.000Z</time>
      </trkpt>
      <trkpt lat="53.19189" lon="-2.871325">
        <ele>20.650066</ele>
        <time>2024-06-02T09:44:25.000Z</time>
      </trkpt>
      <trkpt lat="53.191917" lon="-2.871381">
        <ele>20.589046</ele>
        <time>2024-06-02T09:44:25.000Z</time>
      </trkpt>
      <trkpt lat="53.191988" lon="-2.871663">
        <ele>20.369746</ele>
        <time>2024-06-02T09:44:27.000Z</time>
      </trkpt>
      <trkpt lat="53.192041" lon="-2.872094">
        <ele>20.030716</ele>
        <time>2024-06-02T09:44:30.000Z</time>
      </trkpt>
      <trkpt lat="53.192085" lon="-2.872665">
        <ele>19.599609</ele>
        <time>2024-06-02T09:44:34.000Z</time>
      </trkpt>
      <trkpt lat="53.192078" lon="-2.872688">
        <ele>19.579031</ele>
        <time>2024-06-02T09:44:34.000Z</time>
      </trkpt>
      <trkpt lat="53.192114" lon="-2.873154">
        <ele>19.267303</ele>
        <time>2024-06-02T09:44:37.000Z</time>
      </trkpt>
      <trkpt lat="53.192206" lon="-2.873799">
        <ele>19.267807</ele>
        <time>2024-06-02T09:44:41.000Z</time>
      </trkpt>
      <trkpt lat="53.192248" lon="-2.874171">
        <ele>19.268107</ele>
        <time>2024-06-02T09:44:44.000Z</time>
      </trkpt>
      <trkpt lat="53.192353" lon="-2.874998">
        <ele>19.268776</ele>
        <time>2024-06-02T09:44:50.000Z</time>
      </trkpt>
      <trkpt lat="53.192422" lon="-2.875755">
        <ele>19.269378</ele>
        <time>2024-06-02T09:44:55.000Z</time>
      </trkpt>
      <trkpt lat="53.192455" lon="-2.876133">
        <ele>19.345838</ele>
        <time>2024-06-02T09:44:58.000Z</time>
      </trkpt>
      <trkpt lat="53.192436" lon="-2.877265">
        <ele>20.31388</ele>
        <time>2024-06-02T09:45:06.000Z</time>
      </trkpt>
      <trkpt lat="53.192434" lon="-2.877499">
        <ele>20.52143</ele>
        <time>2024-06-02T09:45:08.000Z</time>
      </trkpt>
      <trkpt lat="53.192409" lon="-2.877689">
        <ele>20.68789</ele>
        <time>2024-06-02T09:45:09.000Z</time>
      </trkpt>
      <trkpt lat="53.19237" lon="-2.878072">
        <ele>21.017044</ele>
        <time>2024-06-02T09:45:12.000Z</time>
      </trkpt>
      <trkpt lat="53.192265" lon="-2.879187">
        <ele>21.893577</ele>
        <time>2024-06-02T09:45:20.000Z</time>
      </trkpt>
      <trkpt lat="53.192262" lon="-2.879361">
        <ele>21.951655</ele>
        <time>2024-06-02T09:45:21.000Z</time>
      </trkpt>
      <trkpt lat="53.192233" lon="-2.87973">
        <ele>22.067376</ele>
        <time>2024-06-02T09:45:23.000Z</time>
      </trkpt>
      <trkpt lat="53.192231" lon="-2.879997">
        <ele>22.155581</ele>
        <time>2024-06-02T09:45:25.000Z</time>
      </trkpt>
      <trkpt lat="53.192226" lon="-2.880275">
        <ele>22.245724</ele>
        <time>2024-06-02T09:45:27.000Z</time>
      </trkpt>
      <trkpt lat="53.192222" lon="-2.880615">
        <ele>22.355331</ele>
        <time>2024-06-02T09:45:29.000Z</time>
      </trkpt>
      <trkpt lat="53.19219" lon="-2.881004">
        <ele>22.479049</ele>
        <time>2024-06-02T09:45:32.000Z</time>
      </trkpt>
      <trkpt lat="53.192146" lon="-2.881494">
        <ele>22.641866</ele>
        <time>2024-06-02T09:45:35.000Z</time>
      </trkpt>
      <trkpt lat="53.19211" lon="-2.88177">
        <ele>22.730172</ele>
        <time>2024-06-02T09:45:37.000Z</time>
      </trkpt>
      <trkpt lat="53.192092" lon="-2.881843">
        <ele>22.752937</ele>
        <time>2024-06-02T09:45:38.000Z</time>
      </trkpt>
      <trkpt lat="53.192015" lon="-2.882098">
        <ele>22.813633991</ele>
        <time>2024-06-02T09:45:40.000Z</time>
      </trkpt>
      <trkpt lat="53.191981" lon="-2.882174">
        <ele>22.8337949379</ele>
        <time>2024-06-02T09:45:41.000Z</time>
      </trkpt>
      <trkpt lat="53.191894" lon="-2.882275">
        <ele>22.8713922799</ele>
        <time>2024-06-02T09:45:42.000Z</time>
      </trkpt>
      <trkpt lat="53.191784" lon="-2.882301">
        <ele>22.9108068055</ele>
        <time>2024-06-02T09:45:43.000Z</time>
      </trkpt>
      <trkpt lat="53.191737" lon="-2.88228">
        <ele>22.9280683229</ele>
        <time>2024-06-02T09:45:44.000Z</time>
      </trkpt>
      <trkpt lat="53.191264" lon="-2.881983">
        <ele>23.1073586437</ele>
        <time>2024-06-02T09:45:50.000Z</time>
      </trkpt>
      <trkpt lat="53.191146" lon="-2.881938">
        <ele>23.1503008607</ele>
        <time>2024-06-02T09:45:51.000Z</time>
      </trkpt>
      <trkpt lat="53.191129" lon="-2.881779">
        <ele>23.1846321328</ele>
        <time>2024-06-02T09:45:52.000Z</time>
      </trkpt>
      <trkpt lat="53.191116" lon="-2.881774">
        <ele>23.1893650698</ele>
        <time>2024-06-02T09:45:52.000Z</time>
      </trkpt>
      <trkpt lat="53.190941" lon="-2.881695">
        <ele>23.2536814073</ele>
        <time>2024-06-02T09:45:54.000Z</time>
      </trkpt>
      <trkpt lat="53.190678" lon="-2.881829">
        <ele>23.3512377698</ele>
        <time>2024-06-02T09:45:57.000Z</time>
      </trkpt>
      <trkpt lat="53.190038" lon="-2.882521">
        <ele>23.6217766262</ele>
        <time>2024-06-02T09:46:05.000Z</time>
      </trkpt>
    </trkseg>
  </trk>
</gpx>

<!--
Performance optimized by W3 Total Cache. Learn more: https://www.boldgrid.com/w3-total-cache/?utm_source=w3tc&utm_medium=footer_comment&utm_campaign=free_plugin

Page Caching using Disk: Enhanced{w3tc_pagecache_reject_reason} 

Served from: www.aquabike.world @ 2026-05-09 17:30:56 by W3 Total Cache
-->